<?xml version="1.0" encoding="UTF-8" standalone="no" ?>
<gpx xmlns="http://www.topografix.com/GPX/1/1" xmlns:xsi="http://www.w3.org/2001/XMLSchema-instance" xsi:schemaLocation="http://www.topografix.com/GPX/1/1 http://www.topografix.com/GPX/1/1/gpx.xsd" version="1.1" creator="VisuGPX - https://www.visugpx.com">
  <metadata>
    <name>Signal de Bassia / Plo de Berdaoulou</name>
  </metadata>
  <trk>
    <name><![CDATA[Signal de Bassia / Plo de Berdaoulou]]></name>
    <trkseg>
      <trkpt lat="42.96282" lon="0.30902">
        <ele>1420.8</ele>
      </trkpt>
      <trkpt lat="42.96297" lon="0.30901">
        <ele>1421.6</ele>
      </trkpt>
      <trkpt lat="42.96343" lon="0.30933">
        <ele>1426</ele>
      </trkpt>
      <trkpt lat="42.96366" lon="0.30969">
        <ele>1430.7</ele>
      </trkpt>
      <trkpt lat="42.96366" lon="0.30969">
        <ele>1430.7</ele>
      </trkpt>
      <trkpt lat="42.96362" lon="0.30975">
        <ele>1517</ele>
        <time>2021-07-01T07:23:21Z</time>
      </trkpt>
      <trkpt lat="42.96372" lon="0.30977">
        <ele>1453</ele>
        <time>2021-07-01T07:23:24Z</time>
      </trkpt>
      <trkpt lat="42.96381" lon="0.30976">
        <ele>1436</ele>
        <time>2021-07-01T07:23:32Z</time>
      </trkpt>
      <trkpt lat="42.96388" lon="0.30986">
        <ele>1440</ele>
        <time>2021-07-01T07:23:46Z</time>
      </trkpt>
      <trkpt lat="42.96397" lon="0.30989">
        <ele>1435</ele>
        <time>2021-07-01T07:23:53Z</time>
      </trkpt>
      <trkpt lat="42.96406" lon="0.30994">
        <ele>1431</ele>
        <time>2021-07-01T07:23:59Z</time>
      </trkpt>
      <trkpt lat="42.96415" lon="0.31">
        <ele>1429</ele>
        <time>2021-07-01T07:24:06Z</time>
      </trkpt>
      <trkpt lat="42.96424" lon="0.31005">
        <ele>1430</ele>
        <time>2021-07-01T07:24:16Z</time>
      </trkpt>
      <trkpt lat="42.96434" lon="0.31008">
        <ele>1429</ele>
        <time>2021-07-01T07:24:26Z</time>
      </trkpt>
      <trkpt lat="42.96443" lon="0.31011">
        <ele>1427</ele>
        <time>2021-07-01T07:24:35Z</time>
      </trkpt>
      <trkpt lat="42.96453" lon="0.31011">
        <ele>1425</ele>
        <time>2021-07-01T07:24:43Z</time>
      </trkpt>
      <trkpt lat="42.96462" lon="0.31012">
        <ele>1425</ele>
        <time>2021-07-01T07:24:55Z</time>
      </trkpt>
      <trkpt lat="42.96472" lon="0.31011">
        <ele>1423</ele>
        <time>2021-07-01T07:25:06Z</time>
      </trkpt>
      <trkpt lat="42.9647" lon="0.30999">
        <ele>1437</ele>
        <time>2021-07-01T07:25:37Z</time>
      </trkpt>
      <trkpt lat="42.96476" lon="0.30989">
        <ele>1439</ele>
        <time>2021-07-01T07:25:49Z</time>
      </trkpt>
      <trkpt lat="42.96482" lon="0.3098">
        <ele>1442</ele>
        <time>2021-07-01T07:26:01Z</time>
      </trkpt>
      <trkpt lat="42.96483" lon="0.30967">
        <ele>1444</ele>
        <time>2021-07-01T07:26:09Z</time>
      </trkpt>
      <trkpt lat="42.96492" lon="0.3097">
        <ele>1445</ele>
        <time>2021-07-01T07:26:19Z</time>
      </trkpt>
      <trkpt lat="42.96493" lon="0.30958">
        <ele>1447</ele>
        <time>2021-07-01T07:26:41Z</time>
      </trkpt>
      <trkpt lat="42.96495" lon="0.30946">
        <ele>1448</ele>
        <time>2021-07-01T07:26:53Z</time>
      </trkpt>
      <trkpt lat="42.96504" lon="0.3095">
        <ele>1450</ele>
        <time>2021-07-01T07:27:03Z</time>
      </trkpt>
      <trkpt lat="42.96512" lon="0.30943">
        <ele>1451</ele>
        <time>2021-07-01T07:27:13Z</time>
      </trkpt>
      <trkpt lat="42.96522" lon="0.30942">
        <ele>1452</ele>
        <time>2021-07-01T07:27:21Z</time>
      </trkpt>
      <trkpt lat="42.96529" lon="0.30932">
        <ele>1454</ele>
        <time>2021-07-01T07:27:29Z</time>
      </trkpt>
      <trkpt lat="42.96535" lon="0.30923">
        <ele>1455</ele>
        <time>2021-07-01T07:27:36Z</time>
      </trkpt>
      <trkpt lat="42.96536" lon="0.3091">
        <ele>1457</ele>
        <time>2021-07-01T07:27:52Z</time>
      </trkpt>
      <trkpt lat="42.96545" lon="0.30908">
        <ele>1461</ele>
        <time>2021-07-01T07:28:07Z</time>
      </trkpt>
      <trkpt lat="42.96556" lon="0.30906">
        <ele>1462</ele>
        <time>2021-07-01T07:28:13Z</time>
      </trkpt>
      <trkpt lat="42.96564" lon="0.30913">
        <ele>1463</ele>
        <time>2021-07-01T07:28:16Z</time>
      </trkpt>
      <trkpt lat="42.9657" lon="0.30903">
        <ele>1464</ele>
        <time>2021-07-01T07:28:27Z</time>
      </trkpt>
      <trkpt lat="42.96579" lon="0.30899">
        <ele>1465</ele>
        <time>2021-07-01T07:28:32Z</time>
      </trkpt>
      <trkpt lat="42.96589" lon="0.30899">
        <ele>1467</ele>
        <time>2021-07-01T07:28:39Z</time>
      </trkpt>
      <trkpt lat="42.96599" lon="0.30896">
        <ele>1468</ele>
        <time>2021-07-01T07:28:45Z</time>
      </trkpt>
      <trkpt lat="42.96604" lon="0.30886">
        <ele>1471</ele>
        <time>2021-07-01T07:28:55Z</time>
      </trkpt>
      <trkpt lat="42.96614" lon="0.30884">
        <ele>1473</ele>
        <time>2021-07-01T07:29:04Z</time>
      </trkpt>
      <trkpt lat="42.96624" lon="0.30886">
        <ele>1475</ele>
        <time>2021-07-01T07:29:13Z</time>
      </trkpt>
      <trkpt lat="42.96632" lon="0.30879">
        <ele>1477</ele>
        <time>2021-07-01T07:29:19Z</time>
      </trkpt>
      <trkpt lat="42.9664" lon="0.30873">
        <ele>1480</ele>
        <time>2021-07-01T07:29:27Z</time>
      </trkpt>
      <trkpt lat="42.96648" lon="0.30866">
        <ele>1483</ele>
        <time>2021-07-01T07:29:40Z</time>
      </trkpt>
      <trkpt lat="42.96655" lon="0.30856">
        <ele>1484</ele>
        <time>2021-07-01T07:29:50Z</time>
      </trkpt>
      <trkpt lat="42.96664" lon="0.30852">
        <ele>1485</ele>
        <time>2021-07-01T07:30:01Z</time>
      </trkpt>
      <trkpt lat="42.96671" lon="0.30845">
        <ele>1486</ele>
        <time>2021-07-01T07:30:09Z</time>
      </trkpt>
      <trkpt lat="42.96678" lon="0.30835">
        <ele>1486</ele>
        <time>2021-07-01T07:30:18Z</time>
      </trkpt>
      <trkpt lat="42.96686" lon="0.30831">
        <ele>1486</ele>
        <time>2021-07-01T07:30:24Z</time>
      </trkpt>
      <trkpt lat="42.96696" lon="0.30827">
        <ele>1487</ele>
        <time>2021-07-01T07:30:31Z</time>
      </trkpt>
      <trkpt lat="42.96702" lon="0.30817">
        <ele>1488</ele>
        <time>2021-07-01T07:30:41Z</time>
      </trkpt>
      <trkpt lat="42.96694" lon="0.30809">
        <ele>1489</ele>
        <time>2021-07-01T07:30:44Z</time>
      </trkpt>
      <trkpt lat="42.96701" lon="0.30799">
        <ele>1493</ele>
        <time>2021-07-01T07:30:58Z</time>
      </trkpt>
      <trkpt lat="42.96708" lon="0.30789">
        <ele>1495</ele>
        <time>2021-07-01T07:31:06Z</time>
      </trkpt>
      <trkpt lat="42.96718" lon="0.3079">
        <ele>1497</ele>
        <time>2021-07-01T07:31:14Z</time>
      </trkpt>
      <trkpt lat="42.96728" lon="0.3079">
        <ele>1499</ele>
        <time>2021-07-01T07:31:23Z</time>
      </trkpt>
      <trkpt lat="42.96736" lon="0.30783">
        <ele>1501</ele>
        <time>2021-07-01T07:31:34Z</time>
      </trkpt>
      <trkpt lat="42.9674" lon="0.30771">
        <ele>1502</ele>
        <time>2021-07-01T07:31:44Z</time>
      </trkpt>
      <trkpt lat="42.96749" lon="0.30766">
        <ele>1505</ele>
        <time>2021-07-01T07:31:52Z</time>
      </trkpt>
      <trkpt lat="42.96758" lon="0.3076">
        <ele>1508</ele>
        <time>2021-07-01T07:32:08Z</time>
      </trkpt>
      <trkpt lat="42.96767" lon="0.30758">
        <ele>1508</ele>
        <time>2021-07-01T07:32:19Z</time>
      </trkpt>
      <trkpt lat="42.96774" lon="0.30749">
        <ele>1509</ele>
        <time>2021-07-01T07:32:30Z</time>
      </trkpt>
      <trkpt lat="42.96782" lon="0.30743">
        <ele>1510</ele>
        <time>2021-07-01T07:32:39Z</time>
      </trkpt>
      <trkpt lat="42.9679" lon="0.30736">
        <ele>1510</ele>
        <time>2021-07-01T07:32:45Z</time>
      </trkpt>
      <trkpt lat="42.96799" lon="0.30733">
        <ele>1509</ele>
        <time>2021-07-01T07:33:00Z</time>
      </trkpt>
      <trkpt lat="42.96808" lon="0.30735">
        <ele>1509</ele>
        <time>2021-07-01T07:33:05Z</time>
      </trkpt>
      <trkpt lat="42.96817" lon="0.30732">
        <ele>1509</ele>
        <time>2021-07-01T07:33:18Z</time>
      </trkpt>
      <trkpt lat="42.96825" lon="0.30725">
        <ele>1508</ele>
        <time>2021-07-01T07:33:26Z</time>
      </trkpt>
      <trkpt lat="42.96835" lon="0.30723">
        <ele>1509</ele>
        <time>2021-07-01T07:33:32Z</time>
      </trkpt>
      <trkpt lat="42.96844" lon="0.30723">
        <ele>1509</ele>
        <time>2021-07-01T07:33:38Z</time>
      </trkpt>
      <trkpt lat="42.96847" lon="0.3071">
        <ele>1508</ele>
        <time>2021-07-01T07:33:47Z</time>
      </trkpt>
      <trkpt lat="42.96854" lon="0.30703">
        <ele>1508</ele>
        <time>2021-07-01T07:33:55Z</time>
      </trkpt>
      <trkpt lat="42.96864" lon="0.30704">
        <ele>1508</ele>
        <time>2021-07-01T07:34:01Z</time>
      </trkpt>
      <trkpt lat="42.96873" lon="0.307">
        <ele>1510</ele>
        <time>2021-07-01T07:34:12Z</time>
      </trkpt>
      <trkpt lat="42.96878" lon="0.3069">
        <ele>1510</ele>
        <time>2021-07-01T07:34:19Z</time>
      </trkpt>
      <trkpt lat="42.9688" lon="0.30675">
        <ele>1511</ele>
        <time>2021-07-01T07:34:27Z</time>
      </trkpt>
      <trkpt lat="42.9689" lon="0.30683">
        <ele>1512</ele>
        <time>2021-07-01T07:34:33Z</time>
      </trkpt>
      <trkpt lat="42.96899" lon="0.3069">
        <ele>1512</ele>
        <time>2021-07-01T07:34:38Z</time>
      </trkpt>
      <trkpt lat="42.96907" lon="0.30682">
        <ele>1513</ele>
        <time>2021-07-01T07:34:46Z</time>
      </trkpt>
      <trkpt lat="42.96917" lon="0.30678">
        <ele>1514</ele>
        <time>2021-07-01T07:34:56Z</time>
      </trkpt>
      <trkpt lat="42.96926" lon="0.3068">
        <ele>1518</ele>
        <time>2021-07-01T07:35:15Z</time>
      </trkpt>
      <trkpt lat="42.96934" lon="0.30673">
        <ele>1521</ele>
        <time>2021-07-01T07:35:39Z</time>
      </trkpt>
      <trkpt lat="42.96944" lon="0.30674">
        <ele>1522</ele>
        <time>2021-07-01T07:35:51Z</time>
      </trkpt>
      <trkpt lat="42.96953" lon="0.30676">
        <ele>1523</ele>
        <time>2021-07-01T07:36:06Z</time>
      </trkpt>
      <trkpt lat="42.96963" lon="0.30679">
        <ele>1527</ele>
        <time>2021-07-01T07:36:25Z</time>
      </trkpt>
      <trkpt lat="42.96972" lon="0.30673">
        <ele>1532</ele>
        <time>2021-07-01T07:36:52Z</time>
      </trkpt>
      <trkpt lat="42.96968" lon="0.30662">
        <ele>1534</ele>
        <time>2021-07-01T07:36:57Z</time>
      </trkpt>
      <trkpt lat="42.96978" lon="0.30672">
        <ele>1535</ele>
        <time>2021-07-01T07:37:03Z</time>
      </trkpt>
      <trkpt lat="42.96987" lon="0.30674">
        <ele>1541</ele>
        <time>2021-07-01T07:37:35Z</time>
      </trkpt>
      <trkpt lat="42.96995" lon="0.30669">
        <ele>1541</ele>
        <time>2021-07-01T07:37:47Z</time>
      </trkpt>
      <trkpt lat="42.97005" lon="0.30672">
        <ele>1541</ele>
        <time>2021-07-01T07:37:53Z</time>
      </trkpt>
      <trkpt lat="42.97014" lon="0.30672">
        <ele>1541</ele>
        <time>2021-07-01T07:37:59Z</time>
      </trkpt>
      <trkpt lat="42.97023" lon="0.30669">
        <ele>1546</ele>
        <time>2021-07-01T07:38:24Z</time>
      </trkpt>
      <trkpt lat="42.97033" lon="0.30671">
        <ele>1548</ele>
        <time>2021-07-01T07:38:40Z</time>
      </trkpt>
      <trkpt lat="42.97038" lon="0.30682">
        <ele>1549</ele>
        <time>2021-07-01T07:38:51Z</time>
      </trkpt>
      <trkpt lat="42.97047" lon="0.30683">
        <ele>1556</ele>
        <time>2021-07-01T07:39:13Z</time>
      </trkpt>
      <trkpt lat="42.97056" lon="0.30687">
        <ele>1560</ele>
        <time>2021-07-01T07:39:36Z</time>
      </trkpt>
      <trkpt lat="42.97065" lon="0.30684">
        <ele>1561</ele>
        <time>2021-07-01T07:39:56Z</time>
      </trkpt>
      <trkpt lat="42.97074" lon="0.30678">
        <ele>1565</ele>
        <time>2021-07-01T07:40:08Z</time>
      </trkpt>
      <trkpt lat="42.97084" lon="0.3068">
        <ele>1567</ele>
        <time>2021-07-01T07:40:20Z</time>
      </trkpt>
      <trkpt lat="42.97093" lon="0.30679">
        <ele>1569</ele>
        <time>2021-07-01T07:40:43Z</time>
      </trkpt>
      <trkpt lat="42.97101" lon="0.30672">
        <ele>1572</ele>
        <time>2021-07-01T07:40:54Z</time>
      </trkpt>
      <trkpt lat="42.9711" lon="0.30675">
        <ele>1573</ele>
        <time>2021-07-01T07:41:04Z</time>
      </trkpt>
      <trkpt lat="42.97119" lon="0.30679">
        <ele>1573</ele>
        <time>2021-07-01T07:41:14Z</time>
      </trkpt>
      <trkpt lat="42.97129" lon="0.30678">
        <ele>1574</ele>
        <time>2021-07-01T07:41:28Z</time>
      </trkpt>
      <trkpt lat="42.97138" lon="0.30682">
        <ele>1575</ele>
        <time>2021-07-01T07:41:39Z</time>
      </trkpt>
      <trkpt lat="42.97147" lon="0.30677">
        <ele>1576</ele>
        <time>2021-07-01T07:41:49Z</time>
      </trkpt>
      <trkpt lat="42.97155" lon="0.30674">
        <ele>1576</ele>
        <time>2021-07-01T07:42:01Z</time>
      </trkpt>
      <trkpt lat="42.97165" lon="0.30668">
        <ele>1577</ele>
        <time>2021-07-01T07:42:08Z</time>
      </trkpt>
      <trkpt lat="42.97173" lon="0.30664">
        <ele>1578</ele>
        <time>2021-07-01T07:42:20Z</time>
      </trkpt>
      <trkpt lat="42.97182" lon="0.30658">
        <ele>1580</ele>
        <time>2021-07-01T07:42:35Z</time>
      </trkpt>
      <trkpt lat="42.97189" lon="0.30652">
        <ele>1581</ele>
        <time>2021-07-01T07:42:47Z</time>
      </trkpt>
      <trkpt lat="42.97198" lon="0.30657">
        <ele>1582</ele>
        <time>2021-07-01T07:43:00Z</time>
      </trkpt>
      <trkpt lat="42.97207" lon="0.30662">
        <ele>1584</ele>
        <time>2021-07-01T07:43:10Z</time>
      </trkpt>
      <trkpt lat="42.97214" lon="0.3067">
        <ele>1584</ele>
        <time>2021-07-01T07:43:15Z</time>
      </trkpt>
      <trkpt lat="42.97226" lon="0.30671">
        <ele>1587</ele>
        <time>2021-07-01T07:43:38Z</time>
      </trkpt>
      <trkpt lat="42.97237" lon="0.30669">
        <ele>1588</ele>
        <time>2021-07-01T07:43:46Z</time>
      </trkpt>
      <trkpt lat="42.97243" lon="0.30661">
        <ele>1592</ele>
        <time>2021-07-01T07:44:03Z</time>
      </trkpt>
      <trkpt lat="42.97253" lon="0.30663">
        <ele>1596</ele>
        <time>2021-07-01T07:44:28Z</time>
      </trkpt>
      <trkpt lat="42.9726" lon="0.30674">
        <ele>1596</ele>
        <time>2021-07-01T07:44:32Z</time>
      </trkpt>
      <trkpt lat="42.97251" lon="0.30666">
        <ele>1598</ele>
        <time>2021-07-01T07:44:44Z</time>
      </trkpt>
      <trkpt lat="42.97259" lon="0.30659">
        <ele>1599</ele>
        <time>2021-07-01T07:44:53Z</time>
      </trkpt>
      <trkpt lat="42.97268" lon="0.30653">
        <ele>1600</ele>
        <time>2021-07-01T07:44:59Z</time>
      </trkpt>
      <trkpt lat="42.97276" lon="0.30647">
        <ele>1603</ele>
        <time>2021-07-01T07:45:16Z</time>
      </trkpt>
      <trkpt lat="42.97271" lon="0.30637">
        <ele>1616</ele>
        <time>2021-07-01T07:47:02Z</time>
      </trkpt>
      <trkpt lat="42.97279" lon="0.30641">
        <ele>1621</ele>
        <time>2021-07-01T07:48:08Z</time>
      </trkpt>
      <trkpt lat="42.97288" lon="0.30644">
        <ele>1620</ele>
        <time>2021-07-01T07:48:44Z</time>
      </trkpt>
      <trkpt lat="42.97298" lon="0.30641">
        <ele>1621</ele>
        <time>2021-07-01T07:48:58Z</time>
      </trkpt>
      <trkpt lat="42.97304" lon="0.30631">
        <ele>1623</ele>
        <time>2021-07-01T07:49:20Z</time>
      </trkpt>
      <trkpt lat="42.97313" lon="0.30633">
        <ele>1626</ele>
        <time>2021-07-01T07:49:39Z</time>
      </trkpt>
      <trkpt lat="42.97321" lon="0.30627">
        <ele>1627</ele>
        <time>2021-07-01T07:49:53Z</time>
      </trkpt>
      <trkpt lat="42.97324" lon="0.30615">
        <ele>1629</ele>
        <time>2021-07-01T07:50:06Z</time>
      </trkpt>
      <trkpt lat="42.9733" lon="0.30605">
        <ele>1633</ele>
        <time>2021-07-01T07:50:23Z</time>
      </trkpt>
      <trkpt lat="42.97334" lon="0.30593">
        <ele>1634</ele>
        <time>2021-07-01T07:50:36Z</time>
      </trkpt>
      <trkpt lat="42.97342" lon="0.30588">
        <ele>1635</ele>
        <time>2021-07-01T07:50:54Z</time>
      </trkpt>
      <trkpt lat="42.97348" lon="0.30578">
        <ele>1633</ele>
        <time>2021-07-01T07:51:21Z</time>
      </trkpt>
      <trkpt lat="42.97352" lon="0.30566">
        <ele>1633</ele>
        <time>2021-07-01T07:51:28Z</time>
      </trkpt>
      <trkpt lat="42.9735" lon="0.30554">
        <ele>1633</ele>
        <time>2021-07-01T07:51:39Z</time>
      </trkpt>
      <trkpt lat="42.9735" lon="0.3054">
        <ele>1634</ele>
        <time>2021-07-01T07:51:53Z</time>
      </trkpt>
      <trkpt lat="42.97359" lon="0.30538">
        <ele>1637</ele>
        <time>2021-07-01T07:52:03Z</time>
      </trkpt>
      <trkpt lat="42.97353" lon="0.3053">
        <ele>1638</ele>
        <time>2021-07-01T07:52:12Z</time>
      </trkpt>
      <trkpt lat="42.97348" lon="0.30518">
        <ele>1636</ele>
        <time>2021-07-01T07:52:24Z</time>
      </trkpt>
      <trkpt lat="42.97349" lon="0.30505">
        <ele>1651</ele>
        <time>2021-07-01T07:53:14Z</time>
      </trkpt>
      <trkpt lat="42.97351" lon="0.30493">
        <ele>1653</ele>
        <time>2021-07-01T07:53:27Z</time>
      </trkpt>
      <trkpt lat="42.97348" lon="0.3048">
        <ele>1654</ele>
        <time>2021-07-01T07:53:32Z</time>
      </trkpt>
      <trkpt lat="42.97346" lon="0.30467">
        <ele>1656</ele>
        <time>2021-07-01T07:53:42Z</time>
      </trkpt>
      <trkpt lat="42.97349" lon="0.30454">
        <ele>1659</ele>
        <time>2021-07-01T07:53:54Z</time>
      </trkpt>
      <trkpt lat="42.97349" lon="0.30442">
        <ele>1663</ele>
        <time>2021-07-01T07:54:04Z</time>
      </trkpt>
      <trkpt lat="42.97345" lon="0.30429">
        <ele>1668</ele>
        <time>2021-07-01T07:54:13Z</time>
      </trkpt>
      <trkpt lat="42.97343" lon="0.30416">
        <ele>1669</ele>
        <time>2021-07-01T07:54:23Z</time>
      </trkpt>
      <trkpt lat="42.97342" lon="0.30404">
        <ele>1679</ele>
        <time>2021-07-01T07:55:07Z</time>
      </trkpt>
      <trkpt lat="42.97335" lon="0.30394">
        <ele>1681</ele>
        <time>2021-07-01T07:55:20Z</time>
      </trkpt>
      <trkpt lat="42.9733" lon="0.30382">
        <ele>1683</ele>
        <time>2021-07-01T07:55:29Z</time>
      </trkpt>
      <trkpt lat="42.97329" lon="0.30368">
        <ele>1686</ele>
        <time>2021-07-01T07:55:57Z</time>
      </trkpt>
      <trkpt lat="42.97322" lon="0.30358">
        <ele>1690</ele>
        <time>2021-07-01T07:56:11Z</time>
      </trkpt>
      <trkpt lat="42.97326" lon="0.30347">
        <ele>1701</ele>
        <time>2021-07-01T07:56:37Z</time>
      </trkpt>
      <trkpt lat="42.97331" lon="0.30336">
        <ele>1703</ele>
        <time>2021-07-01T07:56:52Z</time>
      </trkpt>
      <trkpt lat="42.9734" lon="0.30337">
        <ele>1710</ele>
        <time>2021-07-01T07:59:47Z</time>
      </trkpt>
      <trkpt lat="42.97348" lon="0.30342">
        <ele>1711</ele>
        <time>2021-07-01T08:00:07Z</time>
      </trkpt>
      <trkpt lat="42.97349" lon="0.3033">
        <ele>1714</ele>
        <time>2021-07-01T08:00:27Z</time>
      </trkpt>
      <trkpt lat="42.97358" lon="0.30323">
        <ele>1717</ele>
        <time>2021-07-01T08:01:06Z</time>
      </trkpt>
      <trkpt lat="42.97358" lon="0.3031">
        <ele>1718</ele>
        <time>2021-07-01T08:01:24Z</time>
      </trkpt>
      <trkpt lat="42.97362" lon="0.30298">
        <ele>1723</ele>
        <time>2021-07-01T08:01:44Z</time>
      </trkpt>
      <trkpt lat="42.9736" lon="0.30284">
        <ele>1729</ele>
        <time>2021-07-01T08:02:00Z</time>
      </trkpt>
      <trkpt lat="42.97365" lon="0.30273">
        <ele>1734</ele>
        <time>2021-07-01T08:02:15Z</time>
      </trkpt>
      <trkpt lat="42.97365" lon="0.3026">
        <ele>1739</ele>
        <time>2021-07-01T08:02:37Z</time>
      </trkpt>
      <trkpt lat="42.97364" lon="0.30248">
        <ele>1741</ele>
        <time>2021-07-01T08:02:48Z</time>
      </trkpt>
      <trkpt lat="42.97368" lon="0.30236">
        <ele>1742</ele>
        <time>2021-07-01T08:03:00Z</time>
      </trkpt>
      <trkpt lat="42.9737" lon="0.30223">
        <ele>1742</ele>
        <time>2021-07-01T08:03:12Z</time>
      </trkpt>
      <trkpt lat="42.97375" lon="0.30213">
        <ele>1739</ele>
        <time>2021-07-01T08:03:37Z</time>
      </trkpt>
      <trkpt lat="42.97382" lon="0.30205">
        <ele>1738</ele>
        <time>2021-07-01T08:03:57Z</time>
      </trkpt>
      <trkpt lat="42.97392" lon="0.30205">
        <ele>1738</ele>
        <time>2021-07-01T08:04:08Z</time>
      </trkpt>
      <trkpt lat="42.97399" lon="0.30196">
        <ele>1740</ele>
        <time>2021-07-01T08:04:24Z</time>
      </trkpt>
      <trkpt lat="42.97406" lon="0.30189">
        <ele>1742</ele>
        <time>2021-07-01T08:04:33Z</time>
      </trkpt>
      <trkpt lat="42.97414" lon="0.30182">
        <ele>1745</ele>
        <time>2021-07-01T08:04:44Z</time>
      </trkpt>
      <trkpt lat="42.97418" lon="0.3017">
        <ele>1750</ele>
        <time>2021-07-01T08:04:58Z</time>
      </trkpt>
      <trkpt lat="42.97428" lon="0.30169">
        <ele>1754</ele>
        <time>2021-07-01T08:05:20Z</time>
      </trkpt>
      <trkpt lat="42.97437" lon="0.30172">
        <ele>1758</ele>
        <time>2021-07-01T08:06:37Z</time>
      </trkpt>
      <trkpt lat="42.97447" lon="0.30169">
        <ele>1758</ele>
        <time>2021-07-01T08:06:54Z</time>
      </trkpt>
      <trkpt lat="42.97454" lon="0.30159">
        <ele>1761</ele>
        <time>2021-07-01T08:07:24Z</time>
      </trkpt>
      <trkpt lat="42.97463" lon="0.30156">
        <ele>1762</ele>
        <time>2021-07-01T08:07:38Z</time>
      </trkpt>
      <trkpt lat="42.97469" lon="0.30147">
        <ele>1766</ele>
        <time>2021-07-01T08:08:02Z</time>
      </trkpt>
      <trkpt lat="42.97478" lon="0.30145">
        <ele>1767</ele>
        <time>2021-07-01T08:08:24Z</time>
      </trkpt>
      <trkpt lat="42.97482" lon="0.30133">
        <ele>1774</ele>
        <time>2021-07-01T08:08:52Z</time>
      </trkpt>
      <trkpt lat="42.97489" lon="0.30122">
        <ele>1780</ele>
        <time>2021-07-01T08:09:28Z</time>
      </trkpt>
      <trkpt lat="42.97495" lon="0.30112">
        <ele>1783</ele>
        <time>2021-07-01T08:11:46Z</time>
      </trkpt>
      <trkpt lat="42.97494" lon="0.30099">
        <ele>1782</ele>
        <time>2021-07-01T08:11:56Z</time>
      </trkpt>
      <trkpt lat="42.97504" lon="0.30097">
        <ele>1782</ele>
        <time>2021-07-01T08:12:17Z</time>
      </trkpt>
      <trkpt lat="42.97502" lon="0.30084">
        <ele>1782</ele>
        <time>2021-07-01T08:12:28Z</time>
      </trkpt>
      <trkpt lat="42.97506" lon="0.30072">
        <ele>1784</ele>
        <time>2021-07-01T08:12:43Z</time>
      </trkpt>
      <trkpt lat="42.97513" lon="0.3006">
        <ele>1787</ele>
        <time>2021-07-01T08:13:13Z</time>
      </trkpt>
      <trkpt lat="42.97519" lon="0.3005">
        <ele>1788</ele>
        <time>2021-07-01T08:13:20Z</time>
      </trkpt>
      <trkpt lat="42.97517" lon="0.30038">
        <ele>1790</ele>
        <time>2021-07-01T08:13:37Z</time>
      </trkpt>
      <trkpt lat="42.97521" lon="0.30027">
        <ele>1793</ele>
        <time>2021-07-01T08:14:05Z</time>
      </trkpt>
      <trkpt lat="42.97527" lon="0.30018">
        <ele>1795</ele>
        <time>2021-07-01T08:14:57Z</time>
      </trkpt>
      <trkpt lat="42.97536" lon="0.30021">
        <ele>1797</ele>
        <time>2021-07-01T08:15:11Z</time>
      </trkpt>
      <trkpt lat="42.97527" lon="0.30016">
        <ele>1800</ele>
        <time>2021-07-01T08:15:46Z</time>
      </trkpt>
      <trkpt lat="42.97537" lon="0.30023">
        <ele>1801</ele>
        <time>2021-07-01T08:16:10Z</time>
      </trkpt>
      <trkpt lat="42.97546" lon="0.30023">
        <ele>1814</ele>
        <time>2021-07-01T08:19:13Z</time>
      </trkpt>
      <trkpt lat="42.97552" lon="0.30034">
        <ele>1817</ele>
        <time>2021-07-01T08:21:20Z</time>
      </trkpt>
      <trkpt lat="42.97557" lon="0.30046">
        <ele>1819</ele>
        <time>2021-07-01T08:21:36Z</time>
      </trkpt>
      <trkpt lat="42.97563" lon="0.30055">
        <ele>1820</ele>
        <time>2021-07-01T08:21:44Z</time>
      </trkpt>
      <trkpt lat="42.97569" lon="0.30065">
        <ele>1822</ele>
        <time>2021-07-01T08:21:55Z</time>
      </trkpt>
      <trkpt lat="42.97574" lon="0.30075">
        <ele>1825</ele>
        <time>2021-07-01T08:22:08Z</time>
      </trkpt>
      <trkpt lat="42.97579" lon="0.30086">
        <ele>1829</ele>
        <time>2021-07-01T08:22:25Z</time>
      </trkpt>
      <trkpt lat="42.97574" lon="0.30097">
        <ele>1833</ele>
        <time>2021-07-01T08:22:40Z</time>
      </trkpt>
      <trkpt lat="42.97573" lon="0.3011">
        <ele>1837</ele>
        <time>2021-07-01T08:22:57Z</time>
      </trkpt>
      <trkpt lat="42.9758" lon="0.30118">
        <ele>1840</ele>
        <time>2021-07-01T08:23:13Z</time>
      </trkpt>
      <trkpt lat="42.97587" lon="0.30125">
        <ele>1843</ele>
        <time>2021-07-01T08:23:24Z</time>
      </trkpt>
      <trkpt lat="42.97597" lon="0.30132">
        <ele>1845</ele>
        <time>2021-07-01T08:23:38Z</time>
      </trkpt>
      <trkpt lat="42.97599" lon="0.30143">
        <ele>1848</ele>
        <time>2021-07-01T08:23:56Z</time>
      </trkpt>
      <trkpt lat="42.97606" lon="0.30152">
        <ele>1850</ele>
        <time>2021-07-01T08:24:08Z</time>
      </trkpt>
      <trkpt lat="42.97612" lon="0.30161">
        <ele>1852</ele>
        <time>2021-07-01T08:24:23Z</time>
      </trkpt>
      <trkpt lat="42.97619" lon="0.3017">
        <ele>1854</ele>
        <time>2021-07-01T08:24:34Z</time>
      </trkpt>
      <trkpt lat="42.97625" lon="0.30179">
        <ele>1857</ele>
        <time>2021-07-01T08:24:44Z</time>
      </trkpt>
      <trkpt lat="42.97632" lon="0.30188">
        <ele>1859</ele>
        <time>2021-07-01T08:24:56Z</time>
      </trkpt>
      <trkpt lat="42.97636" lon="0.30199">
        <ele>1863</ele>
        <time>2021-07-01T08:25:16Z</time>
      </trkpt>
      <trkpt lat="42.97637" lon="0.30212">
        <ele>1866</ele>
        <time>2021-07-01T08:25:33Z</time>
      </trkpt>
      <trkpt lat="42.97646" lon="0.30215">
        <ele>1866</ele>
        <time>2021-07-01T08:25:49Z</time>
      </trkpt>
      <trkpt lat="42.97657" lon="0.30215">
        <ele>1867</ele>
        <time>2021-07-01T08:25:59Z</time>
      </trkpt>
      <trkpt lat="42.97661" lon="0.30226">
        <ele>1871</ele>
        <time>2021-07-01T08:26:18Z</time>
      </trkpt>
      <trkpt lat="42.97667" lon="0.30236">
        <ele>1875</ele>
        <time>2021-07-01T08:26:43Z</time>
      </trkpt>
      <trkpt lat="42.97674" lon="0.30245">
        <ele>1877</ele>
        <time>2021-07-01T08:26:54Z</time>
      </trkpt>
      <trkpt lat="42.9768" lon="0.30255">
        <ele>1879</ele>
        <time>2021-07-01T08:27:08Z</time>
      </trkpt>
      <trkpt lat="42.97687" lon="0.30265">
        <ele>1882</ele>
        <time>2021-07-01T08:27:20Z</time>
      </trkpt>
      <trkpt lat="42.97695" lon="0.30272">
        <ele>1885</ele>
        <time>2021-07-01T08:27:37Z</time>
      </trkpt>
      <trkpt lat="42.97692" lon="0.30287">
        <ele>1889</ele>
        <time>2021-07-01T08:27:55Z</time>
      </trkpt>
      <trkpt lat="42.97698" lon="0.30297">
        <ele>1891</ele>
        <time>2021-07-01T08:28:14Z</time>
      </trkpt>
      <trkpt lat="42.97707" lon="0.30303">
        <ele>1894</ele>
        <time>2021-07-01T08:28:25Z</time>
      </trkpt>
      <trkpt lat="42.977" lon="0.3031">
        <ele>1900</ele>
        <time>2021-07-01T08:28:50Z</time>
      </trkpt>
      <trkpt lat="42.97694" lon="0.3032">
        <ele>1903</ele>
        <time>2021-07-01T08:29:03Z</time>
      </trkpt>
      <trkpt lat="42.97693" lon="0.30333">
        <ele>1906</ele>
        <time>2021-07-01T08:29:13Z</time>
      </trkpt>
      <trkpt lat="42.977" lon="0.30342">
        <ele>1909</ele>
        <time>2021-07-01T08:29:27Z</time>
      </trkpt>
      <trkpt lat="42.97706" lon="0.30351">
        <ele>1912</ele>
        <time>2021-07-01T08:29:44Z</time>
      </trkpt>
      <trkpt lat="42.9771" lon="0.30363">
        <ele>1914</ele>
        <time>2021-07-01T08:30:02Z</time>
      </trkpt>
      <trkpt lat="42.97715" lon="0.30375">
        <ele>1917</ele>
        <time>2021-07-01T08:30:19Z</time>
      </trkpt>
      <trkpt lat="42.9772" lon="0.30385">
        <ele>1918</ele>
        <time>2021-07-01T08:30:28Z</time>
      </trkpt>
      <trkpt lat="42.9772" lon="0.30398">
        <ele>1920</ele>
        <time>2021-07-01T08:30:47Z</time>
      </trkpt>
      <trkpt lat="42.97721" lon="0.30411">
        <ele>1922</ele>
        <time>2021-07-01T08:31:03Z</time>
      </trkpt>
      <trkpt lat="42.97716" lon="0.30421">
        <ele>1922</ele>
        <time>2021-07-01T08:31:24Z</time>
      </trkpt>
      <trkpt lat="42.97719" lon="0.30433">
        <ele>1921</ele>
        <time>2021-07-01T08:36:01Z</time>
      </trkpt>
      <trkpt lat="42.97716" lon="0.30445">
        <ele>1922</ele>
        <time>2021-07-01T08:36:13Z</time>
      </trkpt>
      <trkpt lat="42.97716" lon="0.30457">
        <ele>1922</ele>
        <time>2021-07-01T08:36:22Z</time>
      </trkpt>
      <trkpt lat="42.97716" lon="0.3047">
        <ele>1924</ele>
        <time>2021-07-01T08:36:40Z</time>
      </trkpt>
      <trkpt lat="42.97714" lon="0.30482">
        <ele>1924</ele>
        <time>2021-07-01T08:36:53Z</time>
      </trkpt>
      <trkpt lat="42.97711" lon="0.30494">
        <ele>1924</ele>
        <time>2021-07-01T08:37:05Z</time>
      </trkpt>
      <trkpt lat="42.97711" lon="0.30507">
        <ele>1923</ele>
        <time>2021-07-01T08:37:15Z</time>
      </trkpt>
      <trkpt lat="42.9771" lon="0.30519">
        <ele>1921</ele>
        <time>2021-07-01T08:37:33Z</time>
      </trkpt>
      <trkpt lat="42.97711" lon="0.30532">
        <ele>1920</ele>
        <time>2021-07-01T08:37:42Z</time>
      </trkpt>
      <trkpt lat="42.97709" lon="0.30546">
        <ele>1921</ele>
        <time>2021-07-01T08:37:50Z</time>
      </trkpt>
      <trkpt lat="42.97709" lon="0.30558">
        <ele>1920</ele>
        <time>2021-07-01T08:37:59Z</time>
      </trkpt>
      <trkpt lat="42.97709" lon="0.30572">
        <ele>1919</ele>
        <time>2021-07-01T08:38:09Z</time>
      </trkpt>
      <trkpt lat="42.97709" lon="0.30584">
        <ele>1917</ele>
        <time>2021-07-01T08:38:22Z</time>
      </trkpt>
      <trkpt lat="42.97715" lon="0.30595">
        <ele>1917</ele>
        <time>2021-07-01T08:47:27Z</time>
      </trkpt>
      <trkpt lat="42.97709" lon="0.30605">
        <ele>1914</ele>
        <time>2021-07-01T08:47:46Z</time>
      </trkpt>
      <trkpt lat="42.97702" lon="0.30613">
        <ele>1913</ele>
        <time>2021-07-01T08:48:00Z</time>
      </trkpt>
      <trkpt lat="42.97696" lon="0.30624">
        <ele>1912</ele>
        <time>2021-07-01T08:48:10Z</time>
      </trkpt>
      <trkpt lat="42.97692" lon="0.30636">
        <ele>1910</ele>
        <time>2021-07-01T08:48:21Z</time>
      </trkpt>
      <trkpt lat="42.9769" lon="0.30649">
        <ele>1908</ele>
        <time>2021-07-01T08:48:29Z</time>
      </trkpt>
      <trkpt lat="42.97683" lon="0.30657">
        <ele>1905</ele>
        <time>2021-07-01T08:48:40Z</time>
      </trkpt>
      <trkpt lat="42.97677" lon="0.30667">
        <ele>1903</ele>
        <time>2021-07-01T08:48:50Z</time>
      </trkpt>
      <trkpt lat="42.97672" lon="0.30678">
        <ele>1895</ele>
        <time>2021-07-01T08:49:21Z</time>
      </trkpt>
      <trkpt lat="42.97667" lon="0.30689">
        <ele>1891</ele>
        <time>2021-07-01T08:49:38Z</time>
      </trkpt>
      <trkpt lat="42.97661" lon="0.30699">
        <ele>1888</ele>
        <time>2021-07-01T08:49:51Z</time>
      </trkpt>
      <trkpt lat="42.97658" lon="0.30712">
        <ele>1884</ele>
        <time>2021-07-01T08:50:06Z</time>
      </trkpt>
      <trkpt lat="42.97653" lon="0.30723">
        <ele>1880</ele>
        <time>2021-07-01T08:50:22Z</time>
      </trkpt>
      <trkpt lat="42.97648" lon="0.30733">
        <ele>1878</ele>
        <time>2021-07-01T08:50:36Z</time>
      </trkpt>
      <trkpt lat="42.9764" lon="0.30739">
        <ele>1876</ele>
        <time>2021-07-01T08:52:42Z</time>
      </trkpt>
      <trkpt lat="42.97638" lon="0.30751">
        <ele>1874</ele>
        <time>2021-07-01T08:52:58Z</time>
      </trkpt>
      <trkpt lat="42.97632" lon="0.30761">
        <ele>1872</ele>
        <time>2021-07-01T08:53:18Z</time>
      </trkpt>
      <trkpt lat="42.97628" lon="0.30773">
        <ele>1871</ele>
        <time>2021-07-01T08:53:29Z</time>
      </trkpt>
      <trkpt lat="42.97622" lon="0.30783">
        <ele>1869</ele>
        <time>2021-07-01T08:53:47Z</time>
      </trkpt>
      <trkpt lat="42.97617" lon="0.30793">
        <ele>1867</ele>
        <time>2021-07-01T08:54:08Z</time>
      </trkpt>
      <trkpt lat="42.97608" lon="0.30799">
        <ele>1866</ele>
        <time>2021-07-01T08:54:25Z</time>
      </trkpt>
      <trkpt lat="42.97603" lon="0.30809">
        <ele>1865</ele>
        <time>2021-07-01T08:54:38Z</time>
      </trkpt>
      <trkpt lat="42.97597" lon="0.30819">
        <ele>1864</ele>
        <time>2021-07-01T08:54:52Z</time>
      </trkpt>
      <trkpt lat="42.97592" lon="0.3083">
        <ele>1862</ele>
        <time>2021-07-01T08:55:06Z</time>
      </trkpt>
      <trkpt lat="42.97584" lon="0.30838">
        <ele>1861</ele>
        <time>2021-07-01T08:55:17Z</time>
      </trkpt>
      <trkpt lat="42.97579" lon="0.30848">
        <ele>1860</ele>
        <time>2021-07-01T08:55:27Z</time>
      </trkpt>
      <trkpt lat="42.97574" lon="0.30859">
        <ele>1859</ele>
        <time>2021-07-01T08:55:37Z</time>
      </trkpt>
      <trkpt lat="42.97568" lon="0.30868">
        <ele>1857</ele>
        <time>2021-07-01T08:55:55Z</time>
      </trkpt>
      <trkpt lat="42.97562" lon="0.3088">
        <ele>1856</ele>
        <time>2021-07-01T08:56:07Z</time>
      </trkpt>
      <trkpt lat="42.97556" lon="0.30889">
        <ele>1856</ele>
        <time>2021-07-01T08:56:20Z</time>
      </trkpt>
      <trkpt lat="42.97553" lon="0.30902">
        <ele>1856</ele>
        <time>2021-07-01T08:56:29Z</time>
      </trkpt>
      <trkpt lat="42.97547" lon="0.30912">
        <ele>1857</ele>
        <time>2021-07-01T08:56:45Z</time>
      </trkpt>
      <trkpt lat="42.97541" lon="0.30921">
        <ele>1859</ele>
        <time>2021-07-01T08:57:04Z</time>
      </trkpt>
      <trkpt lat="42.9754" lon="0.30933">
        <ele>1858</ele>
        <time>2021-07-01T08:57:19Z</time>
      </trkpt>
      <trkpt lat="42.97533" lon="0.30942">
        <ele>1860</ele>
        <time>2021-07-01T08:57:35Z</time>
      </trkpt>
      <trkpt lat="42.97526" lon="0.30951">
        <ele>1860</ele>
        <time>2021-07-01T08:57:45Z</time>
      </trkpt>
      <trkpt lat="42.97521" lon="0.30962">
        <ele>1862</ele>
        <time>2021-07-01T08:57:55Z</time>
      </trkpt>
      <trkpt lat="42.97516" lon="0.30974">
        <ele>1862</ele>
        <time>2021-07-01T08:58:04Z</time>
      </trkpt>
      <trkpt lat="42.97512" lon="0.30986">
        <ele>1863</ele>
        <time>2021-07-01T08:58:14Z</time>
      </trkpt>
      <trkpt lat="42.97509" lon="0.30998">
        <ele>1864</ele>
        <time>2021-07-01T08:58:21Z</time>
      </trkpt>
      <trkpt lat="42.97504" lon="0.31009">
        <ele>1865</ele>
        <time>2021-07-01T08:58:32Z</time>
      </trkpt>
      <trkpt lat="42.97501" lon="0.31021">
        <ele>1865</ele>
        <time>2021-07-01T08:58:45Z</time>
      </trkpt>
      <trkpt lat="42.97496" lon="0.31032">
        <ele>1866</ele>
        <time>2021-07-01T08:58:58Z</time>
      </trkpt>
      <trkpt lat="42.97492" lon="0.31043">
        <ele>1867</ele>
        <time>2021-07-01T08:59:13Z</time>
      </trkpt>
      <trkpt lat="42.97491" lon="0.31055">
        <ele>1870</ele>
        <time>2021-07-01T08:59:28Z</time>
      </trkpt>
      <trkpt lat="42.97488" lon="0.31067">
        <ele>1873</ele>
        <time>2021-07-01T08:59:45Z</time>
      </trkpt>
      <trkpt lat="42.97481" lon="0.31077">
        <ele>1878</ele>
        <time>2021-07-01T09:00:09Z</time>
      </trkpt>
      <trkpt lat="42.97479" lon="0.31089">
        <ele>1880</ele>
        <time>2021-07-01T09:00:26Z</time>
      </trkpt>
      <trkpt lat="42.97473" lon="0.311">
        <ele>1884</ele>
        <time>2021-07-01T09:00:42Z</time>
      </trkpt>
      <trkpt lat="42.97468" lon="0.31111">
        <ele>1887</ele>
        <time>2021-07-01T09:00:57Z</time>
      </trkpt>
      <trkpt lat="42.9746" lon="0.31119">
        <ele>1889</ele>
        <time>2021-07-01T09:01:08Z</time>
      </trkpt>
      <trkpt lat="42.97458" lon="0.31131">
        <ele>1892</ele>
        <time>2021-07-01T09:01:22Z</time>
      </trkpt>
      <trkpt lat="42.97451" lon="0.31141">
        <ele>1894</ele>
        <time>2021-07-01T09:01:47Z</time>
      </trkpt>
      <trkpt lat="42.97451" lon="0.31154">
        <ele>1896</ele>
        <time>2021-07-01T09:02:04Z</time>
      </trkpt>
      <trkpt lat="42.97444" lon="0.31162">
        <ele>1899</ele>
        <time>2021-07-01T09:07:52Z</time>
      </trkpt>
      <trkpt lat="42.97435" lon="0.31168">
        <ele>1901</ele>
        <time>2021-07-01T09:08:17Z</time>
      </trkpt>
      <trkpt lat="42.97427" lon="0.31176">
        <ele>1901</ele>
        <time>2021-07-01T09:08:24Z</time>
      </trkpt>
      <trkpt lat="42.97418" lon="0.3118">
        <ele>1899</ele>
        <time>2021-07-01T09:08:37Z</time>
      </trkpt>
      <trkpt lat="42.9741" lon="0.31185">
        <ele>1899</ele>
        <time>2021-07-01T09:08:48Z</time>
      </trkpt>
      <trkpt lat="42.97401" lon="0.31192">
        <ele>1897</ele>
        <time>2021-07-01T09:08:57Z</time>
      </trkpt>
      <trkpt lat="42.97393" lon="0.312">
        <ele>1896</ele>
        <time>2021-07-01T09:09:04Z</time>
      </trkpt>
      <trkpt lat="42.97386" lon="0.31209">
        <ele>1896</ele>
        <time>2021-07-01T09:09:13Z</time>
      </trkpt>
      <trkpt lat="42.97379" lon="0.31217">
        <ele>1895</ele>
        <time>2021-07-01T09:09:24Z</time>
      </trkpt>
      <trkpt lat="42.97373" lon="0.31228">
        <ele>1894</ele>
        <time>2021-07-01T09:09:33Z</time>
      </trkpt>
      <trkpt lat="42.97367" lon="0.31239">
        <ele>1892</ele>
        <time>2021-07-01T09:09:49Z</time>
      </trkpt>
      <trkpt lat="42.97361" lon="0.3125">
        <ele>1890</ele>
        <time>2021-07-01T09:10:03Z</time>
      </trkpt>
      <trkpt lat="42.9735" lon="0.31258">
        <ele>1890</ele>
        <time>2021-07-01T09:10:12Z</time>
      </trkpt>
      <trkpt lat="42.97342" lon="0.31266">
        <ele>1887</ele>
        <time>2021-07-01T09:10:24Z</time>
      </trkpt>
      <trkpt lat="42.97333" lon="0.31274">
        <ele>1887</ele>
        <time>2021-07-01T09:10:34Z</time>
      </trkpt>
      <trkpt lat="42.97326" lon="0.31281">
        <ele>1887</ele>
        <time>2021-07-01T09:10:46Z</time>
      </trkpt>
      <trkpt lat="42.97318" lon="0.31287">
        <ele>1887</ele>
        <time>2021-07-01T09:10:55Z</time>
      </trkpt>
      <trkpt lat="42.97309" lon="0.31289">
        <ele>1886</ele>
        <time>2021-07-01T09:11:09Z</time>
      </trkpt>
      <trkpt lat="42.97301" lon="0.31296">
        <ele>1886</ele>
        <time>2021-07-01T09:11:18Z</time>
      </trkpt>
      <trkpt lat="42.97296" lon="0.3131">
        <ele>1887</ele>
        <time>2021-07-01T09:11:22Z</time>
      </trkpt>
      <trkpt lat="42.97297" lon="0.31323">
        <ele>1887</ele>
        <time>2021-07-01T09:11:40Z</time>
      </trkpt>
      <trkpt lat="42.97294" lon="0.31337">
        <ele>1894</ele>
        <time>2021-07-01T09:14:23Z</time>
      </trkpt>
      <trkpt lat="42.97299" lon="0.31347">
        <ele>1895</ele>
        <time>2021-07-01T09:14:42Z</time>
      </trkpt>
      <trkpt lat="42.97291" lon="0.31355">
        <ele>1894</ele>
        <time>2021-07-01T09:15:43Z</time>
      </trkpt>
      <trkpt lat="42.97285" lon="0.31365">
        <ele>1890</ele>
        <time>2021-07-01T09:16:26Z</time>
      </trkpt>
      <trkpt lat="42.97284" lon="0.31378">
        <ele>1887</ele>
        <time>2021-07-01T09:17:00Z</time>
      </trkpt>
      <trkpt lat="42.97282" lon="0.3139">
        <ele>1885</ele>
        <time>2021-07-01T09:17:18Z</time>
      </trkpt>
      <trkpt lat="42.97278" lon="0.31402">
        <ele>1883</ele>
        <time>2021-07-01T09:17:31Z</time>
      </trkpt>
      <trkpt lat="42.97274" lon="0.31414">
        <ele>1881</ele>
        <time>2021-07-01T09:17:39Z</time>
      </trkpt>
      <trkpt lat="42.97268" lon="0.31423">
        <ele>1878</ele>
        <time>2021-07-01T09:17:51Z</time>
      </trkpt>
      <trkpt lat="42.97262" lon="0.31434">
        <ele>1877</ele>
        <time>2021-07-01T09:17:58Z</time>
      </trkpt>
      <trkpt lat="42.97256" lon="0.31444">
        <ele>1873</ele>
        <time>2021-07-01T09:18:15Z</time>
      </trkpt>
      <trkpt lat="42.97251" lon="0.31455">
        <ele>1870</ele>
        <time>2021-07-01T09:18:34Z</time>
      </trkpt>
      <trkpt lat="42.97245" lon="0.31465">
        <ele>1867</ele>
        <time>2021-07-01T09:18:48Z</time>
      </trkpt>
      <trkpt lat="42.97245" lon="0.31478">
        <ele>1864</ele>
        <time>2021-07-01T09:19:00Z</time>
      </trkpt>
      <trkpt lat="42.97244" lon="0.31491">
        <ele>1861</ele>
        <time>2021-07-01T09:19:13Z</time>
      </trkpt>
      <trkpt lat="42.97241" lon="0.31502">
        <ele>1856</ele>
        <time>2021-07-01T09:19:30Z</time>
      </trkpt>
      <trkpt lat="42.97241" lon="0.31515">
        <ele>1852</ele>
        <time>2021-07-01T09:19:44Z</time>
      </trkpt>
      <trkpt lat="42.97239" lon="0.31528">
        <ele>1850</ele>
        <time>2021-07-01T09:19:55Z</time>
      </trkpt>
      <trkpt lat="42.97233" lon="0.31539">
        <ele>1848</ele>
        <time>2021-07-01T09:20:09Z</time>
      </trkpt>
      <trkpt lat="42.97226" lon="0.31546">
        <ele>1845</ele>
        <time>2021-07-01T09:20:30Z</time>
      </trkpt>
      <trkpt lat="42.97223" lon="0.31559">
        <ele>1844</ele>
        <time>2021-07-01T09:20:55Z</time>
      </trkpt>
      <trkpt lat="42.97217" lon="0.31568">
        <ele>1843</ele>
        <time>2021-07-01T09:21:12Z</time>
      </trkpt>
      <trkpt lat="42.97213" lon="0.3158">
        <ele>1843</ele>
        <time>2021-07-01T09:21:25Z</time>
      </trkpt>
      <trkpt lat="42.97207" lon="0.31589">
        <ele>1842</ele>
        <time>2021-07-01T09:21:38Z</time>
      </trkpt>
      <trkpt lat="42.972" lon="0.31599">
        <ele>1842</ele>
        <time>2021-07-01T09:21:46Z</time>
      </trkpt>
      <trkpt lat="42.97196" lon="0.3161">
        <ele>1842</ele>
        <time>2021-07-01T09:21:54Z</time>
      </trkpt>
      <trkpt lat="42.97189" lon="0.31622">
        <ele>1841</ele>
        <time>2021-07-01T09:23:09Z</time>
      </trkpt>
      <trkpt lat="42.97184" lon="0.31633">
        <ele>1838</ele>
        <time>2021-07-01T09:25:15Z</time>
      </trkpt>
      <trkpt lat="42.97179" lon="0.31644">
        <ele>1837</ele>
        <time>2021-07-01T09:25:45Z</time>
      </trkpt>
      <trkpt lat="42.97171" lon="0.31649">
        <ele>1837</ele>
        <time>2021-07-01T09:25:58Z</time>
      </trkpt>
      <trkpt lat="42.97163" lon="0.31656">
        <ele>1837</ele>
        <time>2021-07-01T09:26:12Z</time>
      </trkpt>
      <trkpt lat="42.97153" lon="0.31655">
        <ele>1835</ele>
        <time>2021-07-01T09:26:37Z</time>
      </trkpt>
      <trkpt lat="42.97147" lon="0.31665">
        <ele>1833</ele>
        <time>2021-07-01T09:26:51Z</time>
      </trkpt>
      <trkpt lat="42.97138" lon="0.31674">
        <ele>1832</ele>
        <time>2021-07-01T09:26:59Z</time>
      </trkpt>
      <trkpt lat="42.97133" lon="0.31684">
        <ele>1830</ele>
        <time>2021-07-01T09:27:07Z</time>
      </trkpt>
      <trkpt lat="42.97127" lon="0.31694">
        <ele>1823</ele>
        <time>2021-07-01T09:27:40Z</time>
      </trkpt>
      <trkpt lat="42.97119" lon="0.31701">
        <ele>1819</ele>
        <time>2021-07-01T09:27:54Z</time>
      </trkpt>
      <trkpt lat="42.97122" lon="0.31713">
        <ele>1816</ele>
        <time>2021-07-01T09:28:10Z</time>
      </trkpt>
      <trkpt lat="42.97118" lon="0.31724">
        <ele>1811</ele>
        <time>2021-07-01T09:28:31Z</time>
      </trkpt>
      <trkpt lat="42.97117" lon="0.31738">
        <ele>1804</ele>
        <time>2021-07-01T09:29:07Z</time>
      </trkpt>
      <trkpt lat="42.97109" lon="0.31746">
        <ele>1799</ele>
        <time>2021-07-01T09:29:52Z</time>
      </trkpt>
      <trkpt lat="42.97107" lon="0.31758">
        <ele>1797</ele>
        <time>2021-07-01T09:30:11Z</time>
      </trkpt>
      <trkpt lat="42.97107" lon="0.3177">
        <ele>1795</ele>
        <time>2021-07-01T09:30:29Z</time>
      </trkpt>
      <trkpt lat="42.97098" lon="0.31775">
        <ele>1792</ele>
        <time>2021-07-01T09:30:48Z</time>
      </trkpt>
      <trkpt lat="42.97095" lon="0.31787">
        <ele>1788</ele>
        <time>2021-07-01T09:31:07Z</time>
      </trkpt>
      <trkpt lat="42.97088" lon="0.31798">
        <ele>1782</ele>
        <time>2021-07-01T09:31:55Z</time>
      </trkpt>
      <trkpt lat="42.97087" lon="0.31811">
        <ele>1780</ele>
        <time>2021-07-01T09:32:06Z</time>
      </trkpt>
      <trkpt lat="42.97082" lon="0.31821">
        <ele>1776</ele>
        <time>2021-07-01T09:32:20Z</time>
      </trkpt>
      <trkpt lat="42.97073" lon="0.31825">
        <ele>1773</ele>
        <time>2021-07-01T09:32:34Z</time>
      </trkpt>
      <trkpt lat="42.97071" lon="0.31838">
        <ele>1770</ele>
        <time>2021-07-01T09:32:43Z</time>
      </trkpt>
      <trkpt lat="42.97064" lon="0.31847">
        <ele>1767</ele>
        <time>2021-07-01T09:32:51Z</time>
      </trkpt>
      <trkpt lat="42.97059" lon="0.31857">
        <ele>1766</ele>
        <time>2021-07-01T09:32:59Z</time>
      </trkpt>
      <trkpt lat="42.97051" lon="0.31864">
        <ele>1763</ele>
        <time>2021-07-01T09:33:13Z</time>
      </trkpt>
      <trkpt lat="42.97047" lon="0.31875">
        <ele>1761</ele>
        <time>2021-07-01T09:33:21Z</time>
      </trkpt>
      <trkpt lat="42.97038" lon="0.31877">
        <ele>1757</ele>
        <time>2021-07-01T09:33:42Z</time>
      </trkpt>
      <trkpt lat="42.97031" lon="0.31886">
        <ele>1756</ele>
        <time>2021-07-01T09:33:49Z</time>
      </trkpt>
      <trkpt lat="42.97025" lon="0.31897">
        <ele>1755</ele>
        <time>2021-07-01T09:33:55Z</time>
      </trkpt>
      <trkpt lat="42.9702" lon="0.31909">
        <ele>1755</ele>
        <time>2021-07-01T09:34:01Z</time>
      </trkpt>
      <trkpt lat="42.97018" lon="0.31921">
        <ele>1754</ele>
        <time>2021-07-01T09:34:06Z</time>
      </trkpt>
      <trkpt lat="42.97016" lon="0.31934">
        <ele>1752</ele>
        <time>2021-07-01T09:34:12Z</time>
      </trkpt>
      <trkpt lat="42.97013" lon="0.31946">
        <ele>1749</ele>
        <time>2021-07-01T09:34:21Z</time>
      </trkpt>
      <trkpt lat="42.97005" lon="0.31953">
        <ele>1746</ele>
        <time>2021-07-01T09:34:35Z</time>
      </trkpt>
      <trkpt lat="42.97" lon="0.31966">
        <ele>1744</ele>
        <time>2021-07-01T09:34:43Z</time>
      </trkpt>
      <trkpt lat="42.96995" lon="0.31977">
        <ele>1742</ele>
        <time>2021-07-01T09:34:50Z</time>
      </trkpt>
      <trkpt lat="42.96988" lon="0.31986">
        <ele>1741</ele>
        <time>2021-07-01T09:34:58Z</time>
      </trkpt>
      <trkpt lat="42.96984" lon="0.31998">
        <ele>1740</ele>
        <time>2021-07-01T09:35:07Z</time>
      </trkpt>
      <trkpt lat="42.96985" lon="0.32011">
        <ele>1739</ele>
        <time>2021-07-01T09:35:19Z</time>
      </trkpt>
      <trkpt lat="42.96983" lon="0.32024">
        <ele>1737</ele>
        <time>2021-07-01T09:35:34Z</time>
      </trkpt>
      <trkpt lat="42.9698" lon="0.32036">
        <ele>1736</ele>
        <time>2021-07-01T09:35:51Z</time>
      </trkpt>
      <trkpt lat="42.96977" lon="0.3205">
        <ele>1734</ele>
        <time>2021-07-01T09:36:46Z</time>
      </trkpt>
      <trkpt lat="42.96975" lon="0.32063">
        <ele>1734</ele>
        <time>2021-07-01T09:37:00Z</time>
      </trkpt>
      <trkpt lat="42.96976" lon="0.32076">
        <ele>1733</ele>
        <time>2021-07-01T09:37:18Z</time>
      </trkpt>
      <trkpt lat="42.96978" lon="0.32089">
        <ele>1733</ele>
        <time>2021-07-01T09:37:25Z</time>
      </trkpt>
      <trkpt lat="42.96979" lon="0.32101">
        <ele>1729</ele>
        <time>2021-07-01T09:37:52Z</time>
      </trkpt>
      <trkpt lat="42.96976" lon="0.32114">
        <ele>1728</ele>
        <time>2021-07-01T09:38:01Z</time>
      </trkpt>
      <trkpt lat="42.96974" lon="0.32133">
        <ele>1725</ele>
        <time>2021-07-01T09:38:25Z</time>
      </trkpt>
      <trkpt lat="42.96974" lon="0.32146">
        <ele>1722</ele>
        <time>2021-07-01T09:38:35Z</time>
      </trkpt>
      <trkpt lat="42.96979" lon="0.32156">
        <ele>1716</ele>
        <time>2021-07-01T09:38:56Z</time>
      </trkpt>
      <trkpt lat="42.96982" lon="0.32168">
        <ele>1713</ele>
        <time>2021-07-01T09:39:11Z</time>
      </trkpt>
      <trkpt lat="42.9699" lon="0.32176">
        <ele>1712</ele>
        <time>2021-07-01T09:39:20Z</time>
      </trkpt>
      <trkpt lat="42.96996" lon="0.32194">
        <ele>1707</ele>
        <time>2021-07-01T09:40:09Z</time>
      </trkpt>
      <trkpt lat="42.96997" lon="0.32206">
        <ele>1701</ele>
        <time>2021-07-01T09:40:53Z</time>
      </trkpt>
      <trkpt lat="42.96997" lon="0.32219">
        <ele>1698</ele>
        <time>2021-07-01T09:41:05Z</time>
      </trkpt>
      <trkpt lat="42.97004" lon="0.32229">
        <ele>1697</ele>
        <time>2021-07-01T09:41:14Z</time>
      </trkpt>
      <trkpt lat="42.97005" lon="0.32242">
        <ele>1695</ele>
        <time>2021-07-01T09:41:25Z</time>
      </trkpt>
      <trkpt lat="42.97007" lon="0.32254">
        <ele>1692</ele>
        <time>2021-07-01T09:41:40Z</time>
      </trkpt>
      <trkpt lat="42.97011" lon="0.32266">
        <ele>1691</ele>
        <time>2021-07-01T09:41:54Z</time>
      </trkpt>
      <trkpt lat="42.97015" lon="0.32277">
        <ele>1689</ele>
        <time>2021-07-01T09:42:11Z</time>
      </trkpt>
      <trkpt lat="42.9702" lon="0.32288">
        <ele>1686</ele>
        <time>2021-07-01T09:42:28Z</time>
      </trkpt>
      <trkpt lat="42.97025" lon="0.32299">
        <ele>1682</ele>
        <time>2021-07-01T09:42:40Z</time>
      </trkpt>
      <trkpt lat="42.97016" lon="0.32296">
        <ele>1670</ele>
        <time>2021-07-01T09:44:22Z</time>
      </trkpt>
      <trkpt lat="42.97027" lon="0.32302">
        <ele>1670</ele>
        <time>2021-07-01T09:44:56Z</time>
      </trkpt>
      <trkpt lat="42.97025" lon="0.32315">
        <ele>1671</ele>
        <time>2021-07-01T09:49:53Z</time>
      </trkpt>
      <trkpt lat="42.97025" lon="0.32329">
        <ele>1671</ele>
        <time>2021-07-01T09:50:01Z</time>
      </trkpt>
      <trkpt lat="42.97024" lon="0.32341">
        <ele>1671</ele>
        <time>2021-07-01T09:50:09Z</time>
      </trkpt>
      <trkpt lat="42.97025" lon="0.32354">
        <ele>1669</ele>
        <time>2021-07-01T09:50:19Z</time>
      </trkpt>
      <trkpt lat="42.97029" lon="0.32366">
        <ele>1669</ele>
        <time>2021-07-01T09:50:25Z</time>
      </trkpt>
      <trkpt lat="42.97032" lon="0.32379">
        <ele>1668</ele>
        <time>2021-07-01T09:50:33Z</time>
      </trkpt>
      <trkpt lat="42.97034" lon="0.32391">
        <ele>1667</ele>
        <time>2021-07-01T09:50:41Z</time>
      </trkpt>
      <trkpt lat="42.97038" lon="0.32403">
        <ele>1665</ele>
        <time>2021-07-01T09:50:48Z</time>
      </trkpt>
      <trkpt lat="42.97043" lon="0.32414">
        <ele>1663</ele>
        <time>2021-07-01T09:50:55Z</time>
      </trkpt>
      <trkpt lat="42.97047" lon="0.32425">
        <ele>1662</ele>
        <time>2021-07-01T09:51:01Z</time>
      </trkpt>
      <trkpt lat="42.9705" lon="0.32438">
        <ele>1661</ele>
        <time>2021-07-01T09:51:10Z</time>
      </trkpt>
      <trkpt lat="42.97054" lon="0.32452">
        <ele>1661</ele>
        <time>2021-07-01T09:51:17Z</time>
      </trkpt>
      <trkpt lat="42.97059" lon="0.32464">
        <ele>1661</ele>
        <time>2021-07-01T09:51:23Z</time>
      </trkpt>
      <trkpt lat="42.97061" lon="0.32476">
        <ele>1661</ele>
        <time>2021-07-01T09:51:30Z</time>
      </trkpt>
      <trkpt lat="42.97063" lon="0.32489">
        <ele>1661</ele>
        <time>2021-07-01T09:51:38Z</time>
      </trkpt>
      <trkpt lat="42.97069" lon="0.32498">
        <ele>1661</ele>
        <time>2021-07-01T09:51:45Z</time>
      </trkpt>
      <trkpt lat="42.97074" lon="0.3251">
        <ele>1662</ele>
        <time>2021-07-01T09:51:52Z</time>
      </trkpt>
      <trkpt lat="42.9708" lon="0.32521">
        <ele>1662</ele>
        <time>2021-07-01T09:52:00Z</time>
      </trkpt>
      <trkpt lat="42.97086" lon="0.3253">
        <ele>1662</ele>
        <time>2021-07-01T09:52:09Z</time>
      </trkpt>
      <trkpt lat="42.97091" lon="0.32542">
        <ele>1662</ele>
        <time>2021-07-01T09:52:19Z</time>
      </trkpt>
      <trkpt lat="42.97094" lon="0.32554">
        <ele>1663</ele>
        <time>2021-07-01T09:52:31Z</time>
      </trkpt>
      <trkpt lat="42.97097" lon="0.32565">
        <ele>1663</ele>
        <time>2021-07-01T09:52:40Z</time>
      </trkpt>
      <trkpt lat="42.97102" lon="0.32576">
        <ele>1665</ele>
        <time>2021-07-01T09:52:47Z</time>
      </trkpt>
      <trkpt lat="42.97107" lon="0.32588">
        <ele>1667</ele>
        <time>2021-07-01T09:52:57Z</time>
      </trkpt>
      <trkpt lat="42.97111" lon="0.32599">
        <ele>1669</ele>
        <time>2021-07-01T09:53:08Z</time>
      </trkpt>
      <trkpt lat="42.97117" lon="0.3261">
        <ele>1670</ele>
        <time>2021-07-01T09:53:15Z</time>
      </trkpt>
      <trkpt lat="42.97122" lon="0.32621">
        <ele>1672</ele>
        <time>2021-07-01T09:53:24Z</time>
      </trkpt>
      <trkpt lat="42.97126" lon="0.32633">
        <ele>1676</ele>
        <time>2021-07-01T09:53:41Z</time>
      </trkpt>
      <trkpt lat="42.97134" lon="0.32641">
        <ele>1681</ele>
        <time>2021-07-01T09:53:55Z</time>
      </trkpt>
      <trkpt lat="42.97142" lon="0.32648">
        <ele>1682</ele>
        <time>2021-07-01T09:54:02Z</time>
      </trkpt>
      <trkpt lat="42.97151" lon="0.32654">
        <ele>1686</ele>
        <time>2021-07-01T09:54:21Z</time>
      </trkpt>
      <trkpt lat="42.97156" lon="0.32665">
        <ele>1692</ele>
        <time>2021-07-01T09:54:40Z</time>
      </trkpt>
      <trkpt lat="42.97163" lon="0.32673">
        <ele>1694</ele>
        <time>2021-07-01T09:54:51Z</time>
      </trkpt>
      <trkpt lat="42.97168" lon="0.32684">
        <ele>1696</ele>
        <time>2021-07-01T09:55:05Z</time>
      </trkpt>
      <trkpt lat="42.9717" lon="0.32696">
        <ele>1697</ele>
        <time>2021-07-01T09:55:24Z</time>
      </trkpt>
      <trkpt lat="42.97178" lon="0.32702">
        <ele>1698</ele>
        <time>2021-07-01T09:55:36Z</time>
      </trkpt>
      <trkpt lat="42.97186" lon="0.3271">
        <ele>1701</ele>
        <time>2021-07-01T09:55:59Z</time>
      </trkpt>
      <trkpt lat="42.97193" lon="0.3272">
        <ele>1703</ele>
        <time>2021-07-01T09:56:07Z</time>
      </trkpt>
      <trkpt lat="42.972" lon="0.32728">
        <ele>1705</ele>
        <time>2021-07-01T09:56:25Z</time>
      </trkpt>
      <trkpt lat="42.972" lon="0.32741">
        <ele>1710</ele>
        <time>2021-07-01T09:56:42Z</time>
      </trkpt>
      <trkpt lat="42.97208" lon="0.32748">
        <ele>1715</ele>
        <time>2021-07-01T09:57:04Z</time>
      </trkpt>
      <trkpt lat="42.97214" lon="0.32757">
        <ele>1716</ele>
        <time>2021-07-01T09:57:15Z</time>
      </trkpt>
      <trkpt lat="42.97217" lon="0.32769">
        <ele>1720</ele>
        <time>2021-07-01T09:57:36Z</time>
      </trkpt>
      <trkpt lat="42.97224" lon="0.32779">
        <ele>1721</ele>
        <time>2021-07-01T09:57:53Z</time>
      </trkpt>
      <trkpt lat="42.97233" lon="0.32781">
        <ele>1722</ele>
        <time>2021-07-01T09:58:02Z</time>
      </trkpt>
      <trkpt lat="42.97242" lon="0.32787">
        <ele>1723</ele>
        <time>2021-07-01T09:58:12Z</time>
      </trkpt>
      <trkpt lat="42.97245" lon="0.328">
        <ele>1722</ele>
        <time>2021-07-01T09:58:23Z</time>
      </trkpt>
      <trkpt lat="42.97247" lon="0.32812">
        <ele>1724</ele>
        <time>2021-07-01T09:58:40Z</time>
      </trkpt>
      <trkpt lat="42.97253" lon="0.32822">
        <ele>1726</ele>
        <time>2021-07-01T09:58:52Z</time>
      </trkpt>
      <trkpt lat="42.97256" lon="0.32834">
        <ele>1728</ele>
        <time>2021-07-01T09:59:02Z</time>
      </trkpt>
      <trkpt lat="42.97263" lon="0.32842">
        <ele>1728</ele>
        <time>2021-07-01T09:59:11Z</time>
      </trkpt>
      <trkpt lat="42.97263" lon="0.32854">
        <ele>1728</ele>
        <time>2021-07-01T09:59:23Z</time>
      </trkpt>
      <trkpt lat="42.97263" lon="0.32867">
        <ele>1730</ele>
        <time>2021-07-01T09:59:38Z</time>
      </trkpt>
      <trkpt lat="42.97264" lon="0.32879">
        <ele>1730</ele>
        <time>2021-07-01T09:59:57Z</time>
      </trkpt>
      <trkpt lat="42.97266" lon="0.32892">
        <ele>1729</ele>
        <time>2021-07-01T10:00:30Z</time>
      </trkpt>
      <trkpt lat="42.9726" lon="0.32902">
        <ele>1728</ele>
        <time>2021-07-01T10:00:38Z</time>
      </trkpt>
      <trkpt lat="42.97261" lon="0.32914">
        <ele>1728</ele>
        <time>2021-07-01T10:00:49Z</time>
      </trkpt>
      <trkpt lat="42.97264" lon="0.32927">
        <ele>1728</ele>
        <time>2021-07-01T10:00:57Z</time>
      </trkpt>
      <trkpt lat="42.97267" lon="0.32939">
        <ele>1728</ele>
        <time>2021-07-01T10:01:04Z</time>
      </trkpt>
      <trkpt lat="42.97268" lon="0.32951">
        <ele>1728</ele>
        <time>2021-07-01T10:01:12Z</time>
      </trkpt>
      <trkpt lat="42.97267" lon="0.32964">
        <ele>1727</ele>
        <time>2021-07-01T10:01:23Z</time>
      </trkpt>
      <trkpt lat="42.97266" lon="0.32977">
        <ele>1727</ele>
        <time>2021-07-01T10:01:32Z</time>
      </trkpt>
      <trkpt lat="42.97267" lon="0.3299">
        <ele>1727</ele>
        <time>2021-07-01T10:01:40Z</time>
      </trkpt>
      <trkpt lat="42.9727" lon="0.33002">
        <ele>1727</ele>
        <time>2021-07-01T10:01:46Z</time>
      </trkpt>
      <trkpt lat="42.97275" lon="0.33013">
        <ele>1727</ele>
        <time>2021-07-01T10:01:53Z</time>
      </trkpt>
      <trkpt lat="42.97281" lon="0.33023">
        <ele>1727</ele>
        <time>2021-07-01T10:01:59Z</time>
      </trkpt>
      <trkpt lat="42.97284" lon="0.33035">
        <ele>1726</ele>
        <time>2021-07-01T10:02:09Z</time>
      </trkpt>
      <trkpt lat="42.97284" lon="0.33048">
        <ele>1726</ele>
        <time>2021-07-01T10:02:20Z</time>
      </trkpt>
      <trkpt lat="42.97285" lon="0.33062">
        <ele>1728</ele>
        <time>2021-07-01T10:02:30Z</time>
      </trkpt>
      <trkpt lat="42.97284" lon="0.33074">
        <ele>1729</ele>
        <time>2021-07-01T10:02:38Z</time>
      </trkpt>
      <trkpt lat="42.97287" lon="0.33085">
        <ele>1729</ele>
        <time>2021-07-01T10:02:49Z</time>
      </trkpt>
      <trkpt lat="42.97289" lon="0.33098">
        <ele>1729</ele>
        <time>2021-07-01T10:02:57Z</time>
      </trkpt>
      <trkpt lat="42.97293" lon="0.33109">
        <ele>1730</ele>
        <time>2021-07-01T10:03:06Z</time>
      </trkpt>
      <trkpt lat="42.97293" lon="0.33122">
        <ele>1730</ele>
        <time>2021-07-01T10:03:17Z</time>
      </trkpt>
      <trkpt lat="42.97293" lon="0.33135">
        <ele>1731</ele>
        <time>2021-07-01T10:03:29Z</time>
      </trkpt>
      <trkpt lat="42.97293" lon="0.33148">
        <ele>1733</ele>
        <time>2021-07-01T10:03:42Z</time>
      </trkpt>
      <trkpt lat="42.9729" lon="0.3316">
        <ele>1735</ele>
        <time>2021-07-01T10:03:56Z</time>
      </trkpt>
      <trkpt lat="42.97279" lon="0.33167">
        <ele>1737</ele>
        <time>2021-07-01T10:04:20Z</time>
      </trkpt>
      <trkpt lat="42.97284" lon="0.33178">
        <ele>1741</ele>
        <time>2021-07-01T10:08:09Z</time>
      </trkpt>
      <trkpt lat="42.97284" lon="0.33191">
        <ele>1741</ele>
        <time>2021-07-01T10:08:22Z</time>
      </trkpt>
      <trkpt lat="42.97283" lon="0.33203">
        <ele>1741</ele>
        <time>2021-07-01T10:08:35Z</time>
      </trkpt>
      <trkpt lat="42.97278" lon="0.33214">
        <ele>1743</ele>
        <time>2021-07-01T10:08:59Z</time>
      </trkpt>
      <trkpt lat="42.97275" lon="0.33226">
        <ele>1744</ele>
        <time>2021-07-01T10:09:13Z</time>
      </trkpt>
      <trkpt lat="42.97274" lon="0.33239">
        <ele>1746</ele>
        <time>2021-07-01T10:09:34Z</time>
      </trkpt>
      <trkpt lat="42.97273" lon="0.33252">
        <ele>1748</ele>
        <time>2021-07-01T10:09:54Z</time>
      </trkpt>
      <trkpt lat="42.97266" lon="0.3326">
        <ele>1751</ele>
        <time>2021-07-01T10:10:14Z</time>
      </trkpt>
      <trkpt lat="42.97263" lon="0.33273">
        <ele>1754</ele>
        <time>2021-07-01T10:10:27Z</time>
      </trkpt>
      <trkpt lat="42.97259" lon="0.33284">
        <ele>1756</ele>
        <time>2021-07-01T10:10:42Z</time>
      </trkpt>
      <trkpt lat="42.97255" lon="0.33296">
        <ele>1759</ele>
        <time>2021-07-01T10:10:55Z</time>
      </trkpt>
      <trkpt lat="42.97253" lon="0.33308">
        <ele>1761</ele>
        <time>2021-07-01T10:11:09Z</time>
      </trkpt>
      <trkpt lat="42.9725" lon="0.33321">
        <ele>1763</ele>
        <time>2021-07-01T10:11:20Z</time>
      </trkpt>
      <trkpt lat="42.97247" lon="0.33333">
        <ele>1765</ele>
        <time>2021-07-01T10:11:30Z</time>
      </trkpt>
      <trkpt lat="42.97248" lon="0.33346">
        <ele>1767</ele>
        <time>2021-07-01T10:11:39Z</time>
      </trkpt>
      <trkpt lat="42.97247" lon="0.33359">
        <ele>1770</ele>
        <time>2021-07-01T10:11:49Z</time>
      </trkpt>
      <trkpt lat="42.9725" lon="0.33372">
        <ele>1773</ele>
        <time>2021-07-01T10:11:59Z</time>
      </trkpt>
      <trkpt lat="42.97246" lon="0.33384">
        <ele>1776</ele>
        <time>2021-07-01T10:12:11Z</time>
      </trkpt>
      <trkpt lat="42.97245" lon="0.33397">
        <ele>1777</ele>
        <time>2021-07-01T10:12:21Z</time>
      </trkpt>
      <trkpt lat="42.97245" lon="0.3341">
        <ele>1778</ele>
        <time>2021-07-01T10:12:30Z</time>
      </trkpt>
      <trkpt lat="42.97245" lon="0.33423">
        <ele>1779</ele>
        <time>2021-07-01T10:12:45Z</time>
      </trkpt>
      <trkpt lat="42.97247" lon="0.33435">
        <ele>1780</ele>
        <time>2021-07-01T10:13:05Z</time>
      </trkpt>
      <trkpt lat="42.97247" lon="0.33448">
        <ele>1781</ele>
        <time>2021-07-01T10:13:14Z</time>
      </trkpt>
      <trkpt lat="42.97249" lon="0.33461">
        <ele>1782</ele>
        <time>2021-07-01T10:13:44Z</time>
      </trkpt>
      <trkpt lat="42.97247" lon="0.33474">
        <ele>1781</ele>
        <time>2021-07-01T10:13:57Z</time>
      </trkpt>
      <trkpt lat="42.97241" lon="0.33465">
        <ele>1779</ele>
        <time>2021-07-01T10:17:19Z</time>
      </trkpt>
      <trkpt lat="42.97232" lon="0.33466">
        <ele>1775</ele>
        <time>2021-07-01T10:17:46Z</time>
      </trkpt>
      <trkpt lat="42.97223" lon="0.33467">
        <ele>1770</ele>
        <time>2021-07-01T10:18:06Z</time>
      </trkpt>
      <trkpt lat="42.97216" lon="0.33475">
        <ele>1764</ele>
        <time>2021-07-01T10:18:31Z</time>
      </trkpt>
      <trkpt lat="42.97214" lon="0.33487">
        <ele>1761</ele>
        <time>2021-07-01T10:18:50Z</time>
      </trkpt>
      <trkpt lat="42.97207" lon="0.33495">
        <ele>1756</ele>
        <time>2021-07-01T10:19:09Z</time>
      </trkpt>
      <trkpt lat="42.97198" lon="0.33493">
        <ele>1755</ele>
        <time>2021-07-01T11:23:37Z</time>
      </trkpt>
      <trkpt lat="42.97203" lon="0.33503">
        <ele>1752</ele>
        <time>2021-07-01T11:24:33Z</time>
      </trkpt>
      <trkpt lat="42.97199" lon="0.33491">
        <ele>1753</ele>
        <time>2021-07-01T11:25:34Z</time>
      </trkpt>
      <trkpt lat="42.972" lon="0.33478">
        <ele>1754</ele>
        <time>2021-07-01T11:25:46Z</time>
      </trkpt>
      <trkpt lat="42.97202" lon="0.33465">
        <ele>1755</ele>
        <time>2021-07-01T11:25:56Z</time>
      </trkpt>
      <trkpt lat="42.97202" lon="0.33452">
        <ele>1756</ele>
        <time>2021-07-01T11:26:06Z</time>
      </trkpt>
      <trkpt lat="42.97201" lon="0.33439">
        <ele>1758</ele>
        <time>2021-07-01T11:26:23Z</time>
      </trkpt>
      <trkpt lat="42.97198" lon="0.33427">
        <ele>1758</ele>
        <time>2021-07-01T11:26:32Z</time>
      </trkpt>
      <trkpt lat="42.97199" lon="0.33414">
        <ele>1758</ele>
        <time>2021-07-01T11:26:41Z</time>
      </trkpt>
      <trkpt lat="42.97199" lon="0.33401">
        <ele>1757</ele>
        <time>2021-07-01T11:26:51Z</time>
      </trkpt>
      <trkpt lat="42.97196" lon="0.33388">
        <ele>1757</ele>
        <time>2021-07-01T11:27:01Z</time>
      </trkpt>
      <trkpt lat="42.97199" lon="0.33376">
        <ele>1757</ele>
        <time>2021-07-01T11:27:15Z</time>
      </trkpt>
      <trkpt lat="42.97203" lon="0.33362">
        <ele>1755</ele>
        <time>2021-07-01T11:27:27Z</time>
      </trkpt>
      <trkpt lat="42.97207" lon="0.33351">
        <ele>1755</ele>
        <time>2021-07-01T11:27:38Z</time>
      </trkpt>
      <trkpt lat="42.97206" lon="0.33338">
        <ele>1756</ele>
        <time>2021-07-01T11:27:48Z</time>
      </trkpt>
      <trkpt lat="42.97207" lon="0.33325">
        <ele>1756</ele>
        <time>2021-07-01T11:27:59Z</time>
      </trkpt>
      <trkpt lat="42.97207" lon="0.33312">
        <ele>1757</ele>
        <time>2021-07-01T11:28:16Z</time>
      </trkpt>
      <trkpt lat="42.97208" lon="0.33299">
        <ele>1758</ele>
        <time>2021-07-01T11:28:26Z</time>
      </trkpt>
      <trkpt lat="42.9721" lon="0.33287">
        <ele>1758</ele>
        <time>2021-07-01T11:28:36Z</time>
      </trkpt>
      <trkpt lat="42.9721" lon="0.33274">
        <ele>1758</ele>
        <time>2021-07-01T11:28:45Z</time>
      </trkpt>
      <trkpt lat="42.97213" lon="0.33261">
        <ele>1757</ele>
        <time>2021-07-01T11:28:57Z</time>
      </trkpt>
      <trkpt lat="42.97211" lon="0.33249">
        <ele>1757</ele>
        <time>2021-07-01T11:29:05Z</time>
      </trkpt>
      <trkpt lat="42.9721" lon="0.33237">
        <ele>1757</ele>
        <time>2021-07-01T11:29:13Z</time>
      </trkpt>
      <trkpt lat="42.97204" lon="0.33225">
        <ele>1756</ele>
        <time>2021-07-01T11:29:23Z</time>
      </trkpt>
      <trkpt lat="42.97198" lon="0.33216">
        <ele>1753</ele>
        <time>2021-07-01T11:29:53Z</time>
      </trkpt>
      <trkpt lat="42.97197" lon="0.33203">
        <ele>1752</ele>
        <time>2021-07-01T11:30:04Z</time>
      </trkpt>
      <trkpt lat="42.97195" lon="0.33191">
        <ele>1752</ele>
        <time>2021-07-01T11:30:17Z</time>
      </trkpt>
      <trkpt lat="42.97195" lon="0.33178">
        <ele>1752</ele>
        <time>2021-07-01T11:30:29Z</time>
      </trkpt>
      <trkpt lat="42.97195" lon="0.33165">
        <ele>1752</ele>
        <time>2021-07-01T11:30:44Z</time>
      </trkpt>
      <trkpt lat="42.97189" lon="0.33155">
        <ele>1751</ele>
        <time>2021-07-01T11:31:02Z</time>
      </trkpt>
      <trkpt lat="42.97185" lon="0.33144">
        <ele>1749</ele>
        <time>2021-07-01T11:31:17Z</time>
      </trkpt>
      <trkpt lat="42.97178" lon="0.33137">
        <ele>1747</ele>
        <time>2021-07-01T11:31:28Z</time>
      </trkpt>
      <trkpt lat="42.9717" lon="0.33131">
        <ele>1742</ele>
        <time>2021-07-01T11:31:42Z</time>
      </trkpt>
      <trkpt lat="42.97162" lon="0.33124">
        <ele>1740</ele>
        <time>2021-07-01T11:31:52Z</time>
      </trkpt>
      <trkpt lat="42.97156" lon="0.33114">
        <ele>1739</ele>
        <time>2021-07-01T11:32:00Z</time>
      </trkpt>
      <trkpt lat="42.97152" lon="0.33103">
        <ele>1737</ele>
        <time>2021-07-01T11:32:12Z</time>
      </trkpt>
      <trkpt lat="42.97146" lon="0.33094">
        <ele>1736</ele>
        <time>2021-07-01T11:32:22Z</time>
      </trkpt>
      <trkpt lat="42.97137" lon="0.33091">
        <ele>1735</ele>
        <time>2021-07-01T11:32:31Z</time>
      </trkpt>
      <trkpt lat="42.97129" lon="0.33085">
        <ele>1732</ele>
        <time>2021-07-01T11:32:52Z</time>
      </trkpt>
      <trkpt lat="42.97122" lon="0.33076">
        <ele>1729</ele>
        <time>2021-07-01T11:33:16Z</time>
      </trkpt>
      <trkpt lat="42.97113" lon="0.33071">
        <ele>1728</ele>
        <time>2021-07-01T11:33:28Z</time>
      </trkpt>
      <trkpt lat="42.97106" lon="0.33064">
        <ele>1726</ele>
        <time>2021-07-01T11:34:01Z</time>
      </trkpt>
      <trkpt lat="42.971" lon="0.33051">
        <ele>1726</ele>
        <time>2021-07-01T11:34:29Z</time>
      </trkpt>
      <trkpt lat="42.97091" lon="0.33049">
        <ele>1721</ele>
        <time>2021-07-01T11:34:56Z</time>
      </trkpt>
      <trkpt lat="42.97099" lon="0.33046">
        <ele>1719</ele>
        <time>2021-07-01T11:35:10Z</time>
      </trkpt>
      <trkpt lat="42.97091" lon="0.33042">
        <ele>1718</ele>
        <time>2021-07-01T11:35:30Z</time>
      </trkpt>
      <trkpt lat="42.97086" lon="0.33053">
        <ele>1713</ele>
        <time>2021-07-01T11:36:07Z</time>
      </trkpt>
      <trkpt lat="42.97079" lon="0.3306">
        <ele>1712</ele>
        <time>2021-07-01T11:36:15Z</time>
      </trkpt>
      <trkpt lat="42.9707" lon="0.33058">
        <ele>1710</ele>
        <time>2021-07-01T11:36:41Z</time>
      </trkpt>
      <trkpt lat="42.97067" lon="0.33046">
        <ele>1708</ele>
        <time>2021-07-01T11:37:00Z</time>
      </trkpt>
      <trkpt lat="42.97063" lon="0.33035">
        <ele>1707</ele>
        <time>2021-07-01T11:37:12Z</time>
      </trkpt>
      <trkpt lat="42.97058" lon="0.33025">
        <ele>1707</ele>
        <time>2021-07-01T11:37:38Z</time>
      </trkpt>
      <trkpt lat="42.97049" lon="0.3303">
        <ele>1700</ele>
        <time>2021-07-01T11:38:19Z</time>
      </trkpt>
      <trkpt lat="42.9704" lon="0.33023">
        <ele>1699</ele>
        <time>2021-07-01T11:38:27Z</time>
      </trkpt>
      <trkpt lat="42.97035" lon="0.33012">
        <ele>1698</ele>
        <time>2021-07-01T11:38:37Z</time>
      </trkpt>
      <trkpt lat="42.97041" lon="0.33002">
        <ele>1695</ele>
        <time>2021-07-01T11:38:54Z</time>
      </trkpt>
      <trkpt lat="42.97044" lon="0.3299">
        <ele>1693</ele>
        <time>2021-07-01T11:39:01Z</time>
      </trkpt>
      <trkpt lat="42.97042" lon="0.32978">
        <ele>1692</ele>
        <time>2021-07-01T11:39:10Z</time>
      </trkpt>
      <trkpt lat="42.97042" lon="0.32965">
        <ele>1688</ele>
        <time>2021-07-01T11:39:27Z</time>
      </trkpt>
      <trkpt lat="42.97052" lon="0.32966">
        <ele>1685</ele>
        <time>2021-07-01T11:39:39Z</time>
      </trkpt>
      <trkpt lat="42.97055" lon="0.32954">
        <ele>1682</ele>
        <time>2021-07-01T11:40:01Z</time>
      </trkpt>
      <trkpt lat="42.97055" lon="0.32942">
        <ele>1682</ele>
        <time>2021-07-01T11:40:24Z</time>
      </trkpt>
      <trkpt lat="42.97059" lon="0.32931">
        <ele>1681</ele>
        <time>2021-07-01T11:40:43Z</time>
      </trkpt>
      <trkpt lat="42.97067" lon="0.32923">
        <ele>1681</ele>
        <time>2021-07-01T11:41:36Z</time>
      </trkpt>
      <trkpt lat="42.97073" lon="0.32913">
        <ele>1681</ele>
        <time>2021-07-01T11:42:08Z</time>
      </trkpt>
      <trkpt lat="42.97077" lon="0.32902">
        <ele>1680</ele>
        <time>2021-07-01T11:42:31Z</time>
      </trkpt>
      <trkpt lat="42.97078" lon="0.3289">
        <ele>1680</ele>
        <time>2021-07-01T11:42:51Z</time>
      </trkpt>
      <trkpt lat="42.97074" lon="0.32878">
        <ele>1676</ele>
        <time>2021-07-01T11:43:40Z</time>
      </trkpt>
      <trkpt lat="42.97076" lon="0.32866">
        <ele>1674</ele>
        <time>2021-07-01T11:43:53Z</time>
      </trkpt>
      <trkpt lat="42.97076" lon="0.32853">
        <ele>1673</ele>
        <time>2021-07-01T11:44:11Z</time>
      </trkpt>
      <trkpt lat="42.97077" lon="0.3284">
        <ele>1672</ele>
        <time>2021-07-01T11:44:24Z</time>
      </trkpt>
      <trkpt lat="42.97083" lon="0.32829">
        <ele>1671</ele>
        <time>2021-07-01T11:44:36Z</time>
      </trkpt>
      <trkpt lat="42.9709" lon="0.32821">
        <ele>1670</ele>
        <time>2021-07-01T11:44:46Z</time>
      </trkpt>
      <trkpt lat="42.97095" lon="0.3281">
        <ele>1669</ele>
        <time>2021-07-01T11:44:57Z</time>
      </trkpt>
      <trkpt lat="42.971" lon="0.32799">
        <ele>1667</ele>
        <time>2021-07-01T11:45:08Z</time>
      </trkpt>
      <trkpt lat="42.97104" lon="0.32787">
        <ele>1666</ele>
        <time>2021-07-01T11:45:23Z</time>
      </trkpt>
      <trkpt lat="42.97108" lon="0.32776">
        <ele>1665</ele>
        <time>2021-07-01T11:45:41Z</time>
      </trkpt>
      <trkpt lat="42.97111" lon="0.32763">
        <ele>1664</ele>
        <time>2021-07-01T11:45:53Z</time>
      </trkpt>
      <trkpt lat="42.97113" lon="0.32751">
        <ele>1664</ele>
        <time>2021-07-01T11:46:24Z</time>
      </trkpt>
      <trkpt lat="42.97115" lon="0.32739">
        <ele>1663</ele>
        <time>2021-07-01T11:46:42Z</time>
      </trkpt>
      <trkpt lat="42.97117" lon="0.32726">
        <ele>1663</ele>
        <time>2021-07-01T11:46:52Z</time>
      </trkpt>
      <trkpt lat="42.97118" lon="0.32714">
        <ele>1663</ele>
        <time>2021-07-01T11:47:01Z</time>
      </trkpt>
      <trkpt lat="42.97121" lon="0.32702">
        <ele>1661</ele>
        <time>2021-07-01T11:47:10Z</time>
      </trkpt>
      <trkpt lat="42.97125" lon="0.32689">
        <ele>1660</ele>
        <time>2021-07-01T11:47:20Z</time>
      </trkpt>
      <trkpt lat="42.97125" lon="0.32676">
        <ele>1660</ele>
        <time>2021-07-01T11:47:30Z</time>
      </trkpt>
      <trkpt lat="42.97124" lon="0.32663">
        <ele>1660</ele>
        <time>2021-07-01T11:47:40Z</time>
      </trkpt>
      <trkpt lat="42.97121" lon="0.3265">
        <ele>1661</ele>
        <time>2021-07-01T11:47:49Z</time>
      </trkpt>
      <trkpt lat="42.97117" lon="0.32638">
        <ele>1663</ele>
        <time>2021-07-01T11:47:59Z</time>
      </trkpt>
      <trkpt lat="42.97122" lon="0.32627">
        <ele>1663</ele>
        <time>2021-07-01T11:48:19Z</time>
      </trkpt>
      <trkpt lat="42.97115" lon="0.32617">
        <ele>1669</ele>
        <time>2021-07-01T11:49:40Z</time>
      </trkpt>
      <trkpt lat="42.97112" lon="0.32605">
        <ele>1671</ele>
        <time>2021-07-01T11:51:58Z</time>
      </trkpt>
      <trkpt lat="42.97108" lon="0.32592">
        <ele>1671</ele>
        <time>2021-07-01T11:52:52Z</time>
      </trkpt>
      <trkpt lat="42.97107" lon="0.32578">
        <ele>1671</ele>
        <time>2021-07-01T11:52:59Z</time>
      </trkpt>
      <trkpt lat="42.97102" lon="0.32566">
        <ele>1671</ele>
        <time>2021-07-01T11:53:09Z</time>
      </trkpt>
      <trkpt lat="42.97095" lon="0.32559">
        <ele>1670</ele>
        <time>2021-07-01T11:53:21Z</time>
      </trkpt>
      <trkpt lat="42.97089" lon="0.32548">
        <ele>1669</ele>
        <time>2021-07-01T11:53:34Z</time>
      </trkpt>
      <trkpt lat="42.97087" lon="0.32536">
        <ele>1668</ele>
        <time>2021-07-01T11:53:45Z</time>
      </trkpt>
      <trkpt lat="42.97081" lon="0.32524">
        <ele>1666</ele>
        <time>2021-07-01T11:53:54Z</time>
      </trkpt>
      <trkpt lat="42.97076" lon="0.32514">
        <ele>1666</ele>
        <time>2021-07-01T11:54:04Z</time>
      </trkpt>
      <trkpt lat="42.9707" lon="0.32504">
        <ele>1665</ele>
        <time>2021-07-01T11:54:18Z</time>
      </trkpt>
      <trkpt lat="42.97066" lon="0.32491">
        <ele>1665</ele>
        <time>2021-07-01T11:54:27Z</time>
      </trkpt>
      <trkpt lat="42.9706" lon="0.32481">
        <ele>1664</ele>
        <time>2021-07-01T11:54:35Z</time>
      </trkpt>
      <trkpt lat="42.97059" lon="0.32468">
        <ele>1664</ele>
        <time>2021-07-01T11:54:45Z</time>
      </trkpt>
      <trkpt lat="42.97054" lon="0.32458">
        <ele>1663</ele>
        <time>2021-07-01T11:54:53Z</time>
      </trkpt>
      <trkpt lat="42.97049" lon="0.32447">
        <ele>1662</ele>
        <time>2021-07-01T11:55:02Z</time>
      </trkpt>
      <trkpt lat="42.97047" lon="0.32434">
        <ele>1662</ele>
        <time>2021-07-01T11:55:13Z</time>
      </trkpt>
      <trkpt lat="42.97042" lon="0.32423">
        <ele>1661</ele>
        <time>2021-07-01T11:55:21Z</time>
      </trkpt>
      <trkpt lat="42.97039" lon="0.32411">
        <ele>1662</ele>
        <time>2021-07-01T11:55:30Z</time>
      </trkpt>
      <trkpt lat="42.97037" lon="0.32398">
        <ele>1662</ele>
        <time>2021-07-01T11:55:39Z</time>
      </trkpt>
      <trkpt lat="42.97034" lon="0.32385">
        <ele>1663</ele>
        <time>2021-07-01T11:55:51Z</time>
      </trkpt>
      <trkpt lat="42.97034" lon="0.32372">
        <ele>1664</ele>
        <time>2021-07-01T11:56:03Z</time>
      </trkpt>
      <trkpt lat="42.97031" lon="0.3236">
        <ele>1664</ele>
        <time>2021-07-01T11:56:12Z</time>
      </trkpt>
      <trkpt lat="42.97028" lon="0.32348">
        <ele>1664</ele>
        <time>2021-07-01T11:56:28Z</time>
      </trkpt>
      <trkpt lat="42.97026" lon="0.32335">
        <ele>1665</ele>
        <time>2021-07-01T11:56:39Z</time>
      </trkpt>
      <trkpt lat="42.97028" lon="0.32323">
        <ele>1664</ele>
        <time>2021-07-01T11:56:52Z</time>
      </trkpt>
      <trkpt lat="42.97024" lon="0.32312">
        <ele>1666</ele>
        <time>2021-07-01T11:57:05Z</time>
      </trkpt>
      <trkpt lat="42.97026" lon="0.323">
        <ele>1668</ele>
        <time>2021-07-01T11:57:21Z</time>
      </trkpt>
      <trkpt lat="42.97019" lon="0.32308">
        <ele>1669</ele>
        <time>2021-07-01T11:57:57Z</time>
      </trkpt>
      <trkpt lat="42.97011" lon="0.32316">
        <ele>1669</ele>
        <time>2021-07-01T11:58:28Z</time>
      </trkpt>
      <trkpt lat="42.97003" lon="0.32321">
        <ele>1668</ele>
        <time>2021-07-01T11:58:44Z</time>
      </trkpt>
      <trkpt lat="42.96996" lon="0.32313">
        <ele>1668</ele>
        <time>2021-07-01T11:58:55Z</time>
      </trkpt>
      <trkpt lat="42.96992" lon="0.323">
        <ele>1666</ele>
        <time>2021-07-01T11:59:13Z</time>
      </trkpt>
      <trkpt lat="42.96985" lon="0.32292">
        <ele>1665</ele>
        <time>2021-07-01T11:59:22Z</time>
      </trkpt>
      <trkpt lat="42.96976" lon="0.32289">
        <ele>1661</ele>
        <time>2021-07-01T11:59:52Z</time>
      </trkpt>
      <trkpt lat="42.96969" lon="0.32282">
        <ele>1660</ele>
        <time>2021-07-01T12:00:00Z</time>
      </trkpt>
      <trkpt lat="42.96962" lon="0.32273">
        <ele>1659</ele>
        <time>2021-07-01T12:00:11Z</time>
      </trkpt>
      <trkpt lat="42.96954" lon="0.32267">
        <ele>1658</ele>
        <time>2021-07-01T12:00:22Z</time>
      </trkpt>
      <trkpt lat="42.96943" lon="0.32268">
        <ele>1657</ele>
        <time>2021-07-01T12:00:33Z</time>
      </trkpt>
      <trkpt lat="42.96934" lon="0.32271">
        <ele>1656</ele>
        <time>2021-07-01T12:00:42Z</time>
      </trkpt>
      <trkpt lat="42.96924" lon="0.32272">
        <ele>1656</ele>
        <time>2021-07-01T12:00:49Z</time>
      </trkpt>
      <trkpt lat="42.96918" lon="0.32262">
        <ele>1652</ele>
        <time>2021-07-01T12:01:05Z</time>
      </trkpt>
      <trkpt lat="42.96909" lon="0.32258">
        <ele>1649</ele>
        <time>2021-07-01T12:01:18Z</time>
      </trkpt>
      <trkpt lat="42.969" lon="0.32255">
        <ele>1646</ele>
        <time>2021-07-01T12:01:33Z</time>
      </trkpt>
      <trkpt lat="42.96892" lon="0.32248">
        <ele>1642</ele>
        <time>2021-07-01T12:02:00Z</time>
      </trkpt>
      <trkpt lat="42.96886" lon="0.32237">
        <ele>1640</ele>
        <time>2021-07-01T12:02:08Z</time>
      </trkpt>
      <trkpt lat="42.96876" lon="0.32235">
        <ele>1633</ele>
        <time>2021-07-01T12:02:38Z</time>
      </trkpt>
      <trkpt lat="42.96869" lon="0.32227">
        <ele>1633</ele>
        <time>2021-07-01T12:02:53Z</time>
      </trkpt>
      <trkpt lat="42.96859" lon="0.32212">
        <ele>1631</ele>
        <time>2021-07-01T12:03:19Z</time>
      </trkpt>
      <trkpt lat="42.9685" lon="0.3221">
        <ele>1630</ele>
        <time>2021-07-01T12:03:30Z</time>
      </trkpt>
      <trkpt lat="42.96842" lon="0.32203">
        <ele>1629</ele>
        <time>2021-07-01T12:03:43Z</time>
      </trkpt>
      <trkpt lat="42.96837" lon="0.32193">
        <ele>1629</ele>
        <time>2021-07-01T12:03:59Z</time>
      </trkpt>
      <trkpt lat="42.96832" lon="0.32182">
        <ele>1623</ele>
        <time>2021-07-01T12:04:17Z</time>
      </trkpt>
      <trkpt lat="42.96826" lon="0.32173">
        <ele>1619</ele>
        <time>2021-07-01T12:04:27Z</time>
      </trkpt>
      <trkpt lat="42.96818" lon="0.32164">
        <ele>1616</ele>
        <time>2021-07-01T12:04:40Z</time>
      </trkpt>
      <trkpt lat="42.96816" lon="0.3215">
        <ele>1612</ele>
        <time>2021-07-01T12:05:00Z</time>
      </trkpt>
      <trkpt lat="42.96819" lon="0.32138">
        <ele>1608</ele>
        <time>2021-07-01T12:05:14Z</time>
      </trkpt>
      <trkpt lat="42.96813" lon="0.32126">
        <ele>1606</ele>
        <time>2021-07-01T12:05:29Z</time>
      </trkpt>
      <trkpt lat="42.96809" lon="0.32115">
        <ele>1604</ele>
        <time>2021-07-01T12:05:36Z</time>
      </trkpt>
      <trkpt lat="42.96804" lon="0.32104">
        <ele>1603</ele>
        <time>2021-07-01T12:05:43Z</time>
      </trkpt>
      <trkpt lat="42.96806" lon="0.32091">
        <ele>1601</ele>
        <time>2021-07-01T12:05:55Z</time>
      </trkpt>
      <trkpt lat="42.96805" lon="0.32078">
        <ele>1598</ele>
        <time>2021-07-01T12:06:07Z</time>
      </trkpt>
      <trkpt lat="42.96802" lon="0.32066">
        <ele>1597</ele>
        <time>2021-07-01T12:06:14Z</time>
      </trkpt>
      <trkpt lat="42.96804" lon="0.32054">
        <ele>1596</ele>
        <time>2021-07-01T12:06:26Z</time>
      </trkpt>
      <trkpt lat="42.96798" lon="0.32042">
        <ele>1594</ele>
        <time>2021-07-01T12:06:33Z</time>
      </trkpt>
      <trkpt lat="42.96791" lon="0.32033">
        <ele>1593</ele>
        <time>2021-07-01T12:06:43Z</time>
      </trkpt>
      <trkpt lat="42.96795" lon="0.32021">
        <ele>1591</ele>
        <time>2021-07-01T12:06:54Z</time>
      </trkpt>
      <trkpt lat="42.96792" lon="0.32008">
        <ele>1589</ele>
        <time>2021-07-01T12:07:14Z</time>
      </trkpt>
      <trkpt lat="42.96789" lon="0.31996">
        <ele>1586</ele>
        <time>2021-07-01T12:07:25Z</time>
      </trkpt>
      <trkpt lat="42.96788" lon="0.31983">
        <ele>1584</ele>
        <time>2021-07-01T12:07:36Z</time>
      </trkpt>
      <trkpt lat="42.96792" lon="0.31971">
        <ele>1583</ele>
        <time>2021-07-01T12:07:45Z</time>
      </trkpt>
      <trkpt lat="42.96797" lon="0.31959">
        <ele>1582</ele>
        <time>2021-07-01T12:07:53Z</time>
      </trkpt>
      <trkpt lat="42.96801" lon="0.31948">
        <ele>1580</ele>
        <time>2021-07-01T12:08:02Z</time>
      </trkpt>
      <trkpt lat="42.96802" lon="0.31935">
        <ele>1579</ele>
        <time>2021-07-01T12:08:09Z</time>
      </trkpt>
      <trkpt lat="42.96799" lon="0.31923">
        <ele>1577</ele>
        <time>2021-07-01T12:08:16Z</time>
      </trkpt>
      <trkpt lat="42.96801" lon="0.31911">
        <ele>1575</ele>
        <time>2021-07-01T12:08:29Z</time>
      </trkpt>
      <trkpt lat="42.96803" lon="0.31898">
        <ele>1574</ele>
        <time>2021-07-01T12:08:39Z</time>
      </trkpt>
      <trkpt lat="42.96801" lon="0.31885">
        <ele>1572</ele>
        <time>2021-07-01T12:08:50Z</time>
      </trkpt>
      <trkpt lat="42.96802" lon="0.31873">
        <ele>1570</ele>
        <time>2021-07-01T12:08:57Z</time>
      </trkpt>
      <trkpt lat="42.96807" lon="0.31861">
        <ele>1569</ele>
        <time>2021-07-01T12:09:04Z</time>
      </trkpt>
      <trkpt lat="42.96808" lon="0.31848">
        <ele>1568</ele>
        <time>2021-07-01T12:09:15Z</time>
      </trkpt>
      <trkpt lat="42.96809" lon="0.31836">
        <ele>1565</ele>
        <time>2021-07-01T12:09:37Z</time>
      </trkpt>
      <trkpt lat="42.96809" lon="0.31822">
        <ele>1564</ele>
        <time>2021-07-01T12:09:42Z</time>
      </trkpt>
      <trkpt lat="42.96811" lon="0.31809">
        <ele>1563</ele>
        <time>2021-07-01T12:09:49Z</time>
      </trkpt>
      <trkpt lat="42.96811" lon="0.31796">
        <ele>1562</ele>
        <time>2021-07-01T12:09:55Z</time>
      </trkpt>
      <trkpt lat="42.96807" lon="0.31784">
        <ele>1560</ele>
        <time>2021-07-01T12:10:15Z</time>
      </trkpt>
      <trkpt lat="42.96809" lon="0.31772">
        <ele>1559</ele>
        <time>2021-07-01T12:10:25Z</time>
      </trkpt>
      <trkpt lat="42.96811" lon="0.31759">
        <ele>1559</ele>
        <time>2021-07-01T12:11:54Z</time>
      </trkpt>
      <trkpt lat="42.96819" lon="0.31753">
        <ele>1559</ele>
        <time>2021-07-01T12:12:13Z</time>
      </trkpt>
      <trkpt lat="42.96828" lon="0.31762">
        <ele>1559</ele>
        <time>2021-07-01T12:12:32Z</time>
      </trkpt>
      <trkpt lat="42.96819" lon="0.31758">
        <ele>1559</ele>
        <time>2021-07-01T12:12:54Z</time>
      </trkpt>
      <trkpt lat="42.96823" lon="0.31746">
        <ele>1554</ele>
        <time>2021-07-01T12:14:13Z</time>
      </trkpt>
      <trkpt lat="42.96827" lon="0.31735">
        <ele>1553</ele>
        <time>2021-07-01T12:14:28Z</time>
      </trkpt>
      <trkpt lat="42.96817" lon="0.31733">
        <ele>1551</ele>
        <time>2021-07-01T12:14:37Z</time>
      </trkpt>
      <trkpt lat="42.96816" lon="0.31719">
        <ele>1548</ele>
        <time>2021-07-01T12:14:57Z</time>
      </trkpt>
      <trkpt lat="42.96814" lon="0.31707">
        <ele>1546</ele>
        <time>2021-07-01T12:15:08Z</time>
      </trkpt>
      <trkpt lat="42.9682" lon="0.31698">
        <ele>1545</ele>
        <time>2021-07-01T12:15:15Z</time>
      </trkpt>
      <trkpt lat="42.96822" lon="0.31685">
        <ele>1545</ele>
        <time>2021-07-01T12:15:26Z</time>
      </trkpt>
      <trkpt lat="42.96827" lon="0.31673">
        <ele>1544</ele>
        <time>2021-07-01T12:15:36Z</time>
      </trkpt>
      <trkpt lat="42.96828" lon="0.3166">
        <ele>1543</ele>
        <time>2021-07-01T12:15:56Z</time>
      </trkpt>
      <trkpt lat="42.9683" lon="0.31648">
        <ele>1542</ele>
        <time>2021-07-01T12:16:12Z</time>
      </trkpt>
      <trkpt lat="42.96834" lon="0.31636">
        <ele>1542</ele>
        <time>2021-07-01T12:16:17Z</time>
      </trkpt>
      <trkpt lat="42.96836" lon="0.31624">
        <ele>1541</ele>
        <time>2021-07-01T12:16:22Z</time>
      </trkpt>
      <trkpt lat="42.96843" lon="0.31632">
        <ele>1538</ele>
        <time>2021-07-01T12:16:44Z</time>
      </trkpt>
      <trkpt lat="42.96848" lon="0.31643">
        <ele>1539</ele>
        <time>2021-07-01T12:16:55Z</time>
      </trkpt>
      <trkpt lat="42.96837" lon="0.31635">
        <ele>1540</ele>
        <time>2021-07-01T12:18:02Z</time>
      </trkpt>
      <trkpt lat="42.96828" lon="0.31635">
        <ele>1539</ele>
        <time>2021-07-01T12:19:03Z</time>
      </trkpt>
      <trkpt lat="42.96837" lon="0.31631">
        <ele>1539</ele>
        <time>2021-07-01T12:19:25Z</time>
      </trkpt>
      <trkpt lat="42.96844" lon="0.3162">
        <ele>1539</ele>
        <time>2021-07-01T12:19:36Z</time>
      </trkpt>
      <trkpt lat="42.96848" lon="0.31607">
        <ele>1538</ele>
        <time>2021-07-01T12:19:51Z</time>
      </trkpt>
      <trkpt lat="42.96843" lon="0.31596">
        <ele>1538</ele>
        <time>2021-07-01T12:19:55Z</time>
      </trkpt>
      <trkpt lat="42.96842" lon="0.31582">
        <ele>1538</ele>
        <time>2021-07-01T12:20:00Z</time>
      </trkpt>
      <trkpt lat="42.96842" lon="0.31568">
        <ele>1538</ele>
        <time>2021-07-01T12:20:14Z</time>
      </trkpt>
      <trkpt lat="42.96833" lon="0.31559">
        <ele>1538</ele>
        <time>2021-07-01T12:20:31Z</time>
      </trkpt>
      <trkpt lat="42.96826" lon="0.31551">
        <ele>1538</ele>
        <time>2021-07-01T12:20:43Z</time>
      </trkpt>
      <trkpt lat="42.96818" lon="0.31544">
        <ele>1538</ele>
        <time>2021-07-01T12:20:51Z</time>
      </trkpt>
      <trkpt lat="42.96817" lon="0.31531">
        <ele>1536</ele>
        <time>2021-07-01T12:21:07Z</time>
      </trkpt>
      <trkpt lat="42.96816" lon="0.31518">
        <ele>1534</ele>
        <time>2021-07-01T12:21:16Z</time>
      </trkpt>
      <trkpt lat="42.96813" lon="0.31506">
        <ele>1532</ele>
        <time>2021-07-01T12:21:32Z</time>
      </trkpt>
      <trkpt lat="42.96812" lon="0.31493">
        <ele>1531</ele>
        <time>2021-07-01T12:21:39Z</time>
      </trkpt>
      <trkpt lat="42.9681" lon="0.3148">
        <ele>1530</ele>
        <time>2021-07-01T12:21:49Z</time>
      </trkpt>
      <trkpt lat="42.96804" lon="0.31469">
        <ele>1529</ele>
        <time>2021-07-01T12:22:01Z</time>
      </trkpt>
      <trkpt lat="42.968" lon="0.31457">
        <ele>1529</ele>
        <time>2021-07-01T12:22:12Z</time>
      </trkpt>
      <trkpt lat="42.968" lon="0.31444">
        <ele>1529</ele>
        <time>2021-07-01T12:22:21Z</time>
      </trkpt>
      <trkpt lat="42.96795" lon="0.31433">
        <ele>1527</ele>
        <time>2021-07-01T12:22:33Z</time>
      </trkpt>
      <trkpt lat="42.96789" lon="0.31423">
        <ele>1527</ele>
        <time>2021-07-01T12:22:42Z</time>
      </trkpt>
      <trkpt lat="42.96781" lon="0.31416">
        <ele>1526</ele>
        <time>2021-07-01T12:22:52Z</time>
      </trkpt>
      <trkpt lat="42.96775" lon="0.31406">
        <ele>1526</ele>
        <time>2021-07-01T12:22:58Z</time>
      </trkpt>
      <trkpt lat="42.96766" lon="0.31395">
        <ele>1525</ele>
        <time>2021-07-01T12:23:12Z</time>
      </trkpt>
      <trkpt lat="42.96763" lon="0.31383">
        <ele>1525</ele>
        <time>2021-07-01T12:23:17Z</time>
      </trkpt>
      <trkpt lat="42.96754" lon="0.31378">
        <ele>1525</ele>
        <time>2021-07-01T12:23:27Z</time>
      </trkpt>
      <trkpt lat="42.96755" lon="0.31365">
        <ele>1523</ele>
        <time>2021-07-01T12:23:42Z</time>
      </trkpt>
      <trkpt lat="42.96746" lon="0.31365">
        <ele>1521</ele>
        <time>2021-07-01T12:23:50Z</time>
      </trkpt>
      <trkpt lat="42.96736" lon="0.31366">
        <ele>1520</ele>
        <time>2021-07-01T12:24:00Z</time>
      </trkpt>
      <trkpt lat="42.96725" lon="0.31367">
        <ele>1520</ele>
        <time>2021-07-01T12:24:09Z</time>
      </trkpt>
      <trkpt lat="42.96717" lon="0.31362">
        <ele>1519</ele>
        <time>2021-07-01T12:24:17Z</time>
      </trkpt>
      <trkpt lat="42.96709" lon="0.31355">
        <ele>1517</ele>
        <time>2021-07-01T12:24:34Z</time>
      </trkpt>
      <trkpt lat="42.967" lon="0.31356">
        <ele>1516</ele>
        <time>2021-07-01T12:24:45Z</time>
      </trkpt>
      <trkpt lat="42.9669" lon="0.31357">
        <ele>1515</ele>
        <time>2021-07-01T12:24:54Z</time>
      </trkpt>
      <trkpt lat="42.96679" lon="0.31357">
        <ele>1514</ele>
        <time>2021-07-01T12:25:03Z</time>
      </trkpt>
      <trkpt lat="42.96671" lon="0.31352">
        <ele>1514</ele>
        <time>2021-07-01T12:25:10Z</time>
      </trkpt>
      <trkpt lat="42.96665" lon="0.31342">
        <ele>1514</ele>
        <time>2021-07-01T12:25:20Z</time>
      </trkpt>
      <trkpt lat="42.96658" lon="0.31332">
        <ele>1512</ele>
        <time>2021-07-01T12:25:33Z</time>
      </trkpt>
      <trkpt lat="42.96651" lon="0.31323">
        <ele>1512</ele>
        <time>2021-07-01T12:25:41Z</time>
      </trkpt>
      <trkpt lat="42.96643" lon="0.31316">
        <ele>1512</ele>
        <time>2021-07-01T12:25:52Z</time>
      </trkpt>
      <trkpt lat="42.96635" lon="0.31308">
        <ele>1509</ele>
        <time>2021-07-01T12:26:05Z</time>
      </trkpt>
      <trkpt lat="42.96627" lon="0.31303">
        <ele>1507</ele>
        <time>2021-07-01T12:26:17Z</time>
      </trkpt>
      <trkpt lat="42.9662" lon="0.31294">
        <ele>1507</ele>
        <time>2021-07-01T12:26:27Z</time>
      </trkpt>
      <trkpt lat="42.96613" lon="0.31284">
        <ele>1507</ele>
        <time>2021-07-01T12:26:36Z</time>
      </trkpt>
      <trkpt lat="42.96607" lon="0.31273">
        <ele>1504</ele>
        <time>2021-07-01T12:26:47Z</time>
      </trkpt>
      <trkpt lat="42.96602" lon="0.31262">
        <ele>1502</ele>
        <time>2021-07-01T12:26:57Z</time>
      </trkpt>
      <trkpt lat="42.96597" lon="0.31251">
        <ele>1501</ele>
        <time>2021-07-01T12:27:04Z</time>
      </trkpt>
      <trkpt lat="42.96588" lon="0.31244">
        <ele>1499</ele>
        <time>2021-07-01T12:27:14Z</time>
      </trkpt>
      <trkpt lat="42.96581" lon="0.31236">
        <ele>1497</ele>
        <time>2021-07-01T12:27:26Z</time>
      </trkpt>
      <trkpt lat="42.96574" lon="0.31227">
        <ele>1495</ele>
        <time>2021-07-01T12:27:36Z</time>
      </trkpt>
      <trkpt lat="42.96567" lon="0.31217">
        <ele>1493</ele>
        <time>2021-07-01T12:27:46Z</time>
      </trkpt>
      <trkpt lat="42.9656" lon="0.31208">
        <ele>1491</ele>
        <time>2021-07-01T12:27:56Z</time>
      </trkpt>
      <trkpt lat="42.96551" lon="0.31201">
        <ele>1488</ele>
        <time>2021-07-01T12:28:07Z</time>
      </trkpt>
      <trkpt lat="42.96544" lon="0.31193">
        <ele>1487</ele>
        <time>2021-07-01T12:28:16Z</time>
      </trkpt>
      <trkpt lat="42.96536" lon="0.31187">
        <ele>1483</ele>
        <time>2021-07-01T12:28:31Z</time>
      </trkpt>
      <trkpt lat="42.96529" lon="0.31179">
        <ele>1481</ele>
        <time>2021-07-01T12:28:42Z</time>
      </trkpt>
      <trkpt lat="42.96523" lon="0.31169">
        <ele>1478</ele>
        <time>2021-07-01T12:28:53Z</time>
      </trkpt>
      <trkpt lat="42.96516" lon="0.3116">
        <ele>1475</ele>
        <time>2021-07-01T12:29:03Z</time>
      </trkpt>
      <trkpt lat="42.96509" lon="0.31152">
        <ele>1471</ele>
        <time>2021-07-01T12:29:12Z</time>
      </trkpt>
      <trkpt lat="42.96501" lon="0.31145">
        <ele>1467</ele>
        <time>2021-07-01T12:29:23Z</time>
      </trkpt>
      <trkpt lat="42.96496" lon="0.31133">
        <ele>1463</ele>
        <time>2021-07-01T12:29:37Z</time>
      </trkpt>
      <trkpt lat="42.96487" lon="0.31136">
        <ele>1459</ele>
        <time>2021-07-01T12:29:53Z</time>
      </trkpt>
      <trkpt lat="42.96481" lon="0.31127">
        <ele>1455</ele>
        <time>2021-07-01T12:30:07Z</time>
      </trkpt>
      <trkpt lat="42.96474" lon="0.31117">
        <ele>1454</ele>
        <time>2021-07-01T12:30:25Z</time>
      </trkpt>
      <trkpt lat="42.96467" lon="0.31108">
        <ele>1453</ele>
        <time>2021-07-01T12:30:34Z</time>
      </trkpt>
      <trkpt lat="42.9646" lon="0.311">
        <ele>1452</ele>
        <time>2021-07-01T12:30:46Z</time>
      </trkpt>
      <trkpt lat="42.96452" lon="0.31095">
        <ele>1451</ele>
        <time>2021-07-01T12:31:00Z</time>
      </trkpt>
      <trkpt lat="42.96445" lon="0.31085">
        <ele>1450</ele>
        <time>2021-07-01T12:31:07Z</time>
      </trkpt>
      <trkpt lat="42.96439" lon="0.31074">
        <ele>1450</ele>
        <time>2021-07-01T12:31:13Z</time>
      </trkpt>
      <trkpt lat="42.96434" lon="0.31064">
        <ele>1449</ele>
        <time>2021-07-01T12:31:22Z</time>
      </trkpt>
      <trkpt lat="42.96424" lon="0.3106">
        <ele>1446</ele>
        <time>2021-07-01T12:31:43Z</time>
      </trkpt>
      <trkpt lat="42.96418" lon="0.31051">
        <ele>1445</ele>
        <time>2021-07-01T12:31:52Z</time>
      </trkpt>
      <trkpt lat="42.96411" lon="0.31042">
        <ele>1444</ele>
        <time>2021-07-01T12:32:00Z</time>
      </trkpt>
      <trkpt lat="42.96405" lon="0.31031">
        <ele>1442</ele>
        <time>2021-07-01T12:32:11Z</time>
      </trkpt>
      <trkpt lat="42.96397" lon="0.31024">
        <ele>1440</ele>
        <time>2021-07-01T12:32:21Z</time>
      </trkpt>
      <trkpt lat="42.96391" lon="0.31013">
        <ele>1438</ele>
        <time>2021-07-01T12:32:30Z</time>
      </trkpt>
      <trkpt lat="42.96386" lon="0.31002">
        <ele>1436</ele>
        <time>2021-07-01T12:32:39Z</time>
      </trkpt>
      <trkpt lat="42.96378" lon="0.30994">
        <ele>1434</ele>
        <time>2021-07-01T12:32:50Z</time>
      </trkpt>
      <trkpt lat="42.96372" lon="0.30983">
        <ele>1431</ele>
        <time>2021-07-01T12:32:59Z</time>
      </trkpt>
      <trkpt lat="42.96366" lon="0.30974">
        <ele>1429</ele>
        <time>2021-07-01T12:33:08Z</time>
      </trkpt>
      <trkpt lat="42.96358" lon="0.30966">
        <ele>1428</ele>
        <time>2021-07-01T12:33:16Z</time>
      </trkpt>
      <trkpt lat="42.96352" lon="0.30955">
        <ele>1425</ele>
        <time>2021-07-01T12:33:26Z</time>
      </trkpt>
      <trkpt lat="42.96346" lon="0.30946">
        <ele>1423</ele>
        <time>2021-07-01T12:33:37Z</time>
      </trkpt>
      <trkpt lat="42.96338" lon="0.30938">
        <ele>1421</ele>
        <time>2021-07-01T12:33:46Z</time>
      </trkpt>
      <trkpt lat="42.96329" lon="0.30933">
        <ele>1419</ele>
        <time>2021-07-01T12:33:54Z</time>
      </trkpt>
      <trkpt lat="42.96322" lon="0.30925">
        <ele>1418</ele>
        <time>2021-07-01T12:34:01Z</time>
      </trkpt>
      <trkpt lat="42.96314" lon="0.30918">
        <ele>1416</ele>
        <time>2021-07-01T12:34:09Z</time>
      </trkpt>
      <trkpt lat="42.96306" lon="0.30911">
        <ele>1415</ele>
        <time>2021-07-01T12:34:15Z</time>
      </trkpt>
      <trkpt lat="42.96297" lon="0.30908">
        <ele>1414</ele>
        <time>2021-07-01T12:34:25Z</time>
      </trkpt>
      <trkpt lat="42.96287" lon="0.30907">
        <ele>1411</ele>
        <time>2021-07-01T12:34:38Z</time>
      </trkpt>
      <trkpt lat="42.96278" lon="0.30908">
        <ele>1411</ele>
        <time>2021-07-01T12:34:49Z</time>
      </trkpt>
    </trkseg>
  </trk>
</gpx>